<?xml version="1.0" encoding="UTF-8" standalone="no" ?>
<gpx xmlns="http://www.topografix.com/GPX/1/1" xmlns:xsi="http://www.w3.org/2001/XMLSchema-instance" xsi:schemaLocation="http://www.topografix.com/GPX/1/1 http://www.topografix.com/GPX/1/1/gpx.xsd" version="1.1" creator="VisuGPX - https://www.visugpx.com">
  <metadata>
    <name>Circuit des serres</name>
    <desc><![CDATA[Une belle boucle dans le piémont pyrénéen. Au milieu de la sortie, un superbe panorama sur la chaîne.]]></desc>
  </metadata>
  <trk>
    <name><![CDATA[Tracé actuel: 07 FEV 2012 14:37]]></name>
    <trkseg>
      <trkpt lat="43.15958" lon="-0.18456">
        <ele>309.68</ele>
        <time>2012-02-07T13:37:36Z</time>
      </trkpt>
      <trkpt lat="43.15943" lon="-0.18461">
        <ele>314.49</ele>
        <time>2012-02-07T13:40:14Z</time>
      </trkpt>
      <trkpt lat="43.15929" lon="-0.18468">
        <ele>313.05</ele>
        <time>2012-02-07T13:40:26Z</time>
      </trkpt>
      <trkpt lat="43.15919" lon="-0.18477">
        <ele>311.6</ele>
        <time>2012-02-07T13:40:38Z</time>
      </trkpt>
      <trkpt lat="43.15909" lon="-0.18483">
        <ele>310.16</ele>
        <time>2012-02-07T13:40:50Z</time>
      </trkpt>
      <trkpt lat="43.15899" lon="-0.18488">
        <ele>309.2</ele>
        <time>2012-02-07T13:41:02Z</time>
      </trkpt>
      <trkpt lat="43.15888" lon="-0.18493">
        <ele>308.72</ele>
        <time>2012-02-07T13:41:11Z</time>
      </trkpt>
      <trkpt lat="43.15874" lon="-0.18499">
        <ele>307.28</ele>
        <time>2012-02-07T13:41:21Z</time>
      </trkpt>
      <trkpt lat="43.15862" lon="-0.18506">
        <ele>306.8</ele>
        <time>2012-02-07T13:41:31Z</time>
      </trkpt>
      <trkpt lat="43.1585" lon="-0.1851">
        <ele>305.84</ele>
        <time>2012-02-07T13:41:40Z</time>
      </trkpt>
      <trkpt lat="43.15838" lon="-0.18518">
        <ele>305.36</ele>
        <time>2012-02-07T13:41:50Z</time>
      </trkpt>
      <trkpt lat="43.15828" lon="-0.18522">
        <ele>305.36</ele>
        <time>2012-02-07T13:42:01Z</time>
      </trkpt>
      <trkpt lat="43.15815" lon="-0.1853">
        <ele>304.39</ele>
        <time>2012-02-07T13:42:11Z</time>
      </trkpt>
      <trkpt lat="43.15805" lon="-0.18535">
        <ele>303.43</ele>
        <time>2012-02-07T13:42:20Z</time>
      </trkpt>
      <trkpt lat="43.15796" lon="-0.18542">
        <ele>302.95</ele>
        <time>2012-02-07T13:42:29Z</time>
      </trkpt>
      <trkpt lat="43.15785" lon="-0.18548">
        <ele>301.51</ele>
        <time>2012-02-07T13:42:40Z</time>
      </trkpt>
      <trkpt lat="43.15773" lon="-0.18554">
        <ele>300.07</ele>
        <time>2012-02-07T13:42:49Z</time>
      </trkpt>
      <trkpt lat="43.1576" lon="-0.18558">
        <ele>299.11</ele>
        <time>2012-02-07T13:42:58Z</time>
      </trkpt>
      <trkpt lat="43.15748" lon="-0.18568">
        <ele>297.67</ele>
        <time>2012-02-07T13:43:08Z</time>
      </trkpt>
      <trkpt lat="43.15735" lon="-0.18575">
        <ele>297.18</ele>
        <time>2012-02-07T13:43:18Z</time>
      </trkpt>
      <trkpt lat="43.15722" lon="-0.18578">
        <ele>296.22</ele>
        <time>2012-02-07T13:43:28Z</time>
      </trkpt>
      <trkpt lat="43.1571" lon="-0.18581">
        <ele>296.22</ele>
        <time>2012-02-07T13:43:37Z</time>
      </trkpt>
      <trkpt lat="43.15698" lon="-0.18583">
        <ele>296.22</ele>
        <time>2012-02-07T13:43:47Z</time>
      </trkpt>
      <trkpt lat="43.15688" lon="-0.18579">
        <ele>295.74</ele>
        <time>2012-02-07T13:43:56Z</time>
      </trkpt>
      <trkpt lat="43.15678" lon="-0.18578">
        <ele>296.22</ele>
        <time>2012-02-07T13:44:04Z</time>
      </trkpt>
      <trkpt lat="43.15667" lon="-0.1858">
        <ele>295.74</ele>
        <time>2012-02-07T13:44:13Z</time>
      </trkpt>
      <trkpt lat="43.15654" lon="-0.18583">
        <ele>295.74</ele>
        <time>2012-02-07T13:44:23Z</time>
      </trkpt>
      <trkpt lat="43.15649" lon="-0.18591">
        <ele>297.18</ele>
        <time>2012-02-07T13:45:10Z</time>
      </trkpt>
      <trkpt lat="43.15638" lon="-0.18596">
        <ele>297.67</ele>
        <time>2012-02-07T13:46:17Z</time>
      </trkpt>
      <trkpt lat="43.15627" lon="-0.18594">
        <ele>298.63</ele>
        <time>2012-02-07T13:46:27Z</time>
      </trkpt>
      <trkpt lat="43.15617" lon="-0.18593">
        <ele>299.11</ele>
        <time>2012-02-07T13:46:36Z</time>
      </trkpt>
      <trkpt lat="43.15608" lon="-0.18593">
        <ele>299.59</ele>
        <time>2012-02-07T13:46:44Z</time>
      </trkpt>
      <trkpt lat="43.15599" lon="-0.18588">
        <ele>300.07</ele>
        <time>2012-02-07T13:46:54Z</time>
      </trkpt>
      <trkpt lat="43.15594" lon="-0.18574">
        <ele>299.59</ele>
        <time>2012-02-07T13:47:06Z</time>
      </trkpt>
      <trkpt lat="43.15588" lon="-0.18566">
        <ele>300.07</ele>
        <time>2012-02-07T13:47:16Z</time>
      </trkpt>
      <trkpt lat="43.1558" lon="-0.18559">
        <ele>300.07</ele>
        <time>2012-02-07T13:47:26Z</time>
      </trkpt>
      <trkpt lat="43.15573" lon="-0.18568">
        <ele>300.07</ele>
        <time>2012-02-07T13:47:34Z</time>
      </trkpt>
      <trkpt lat="43.15567" lon="-0.18577">
        <ele>301.03</ele>
        <time>2012-02-07T13:47:42Z</time>
      </trkpt>
      <trkpt lat="43.15557" lon="-0.18582">
        <ele>301.51</ele>
        <time>2012-02-07T13:47:51Z</time>
      </trkpt>
      <trkpt lat="43.15551" lon="-0.18574">
        <ele>301.51</ele>
        <time>2012-02-07T13:48:01Z</time>
      </trkpt>
      <trkpt lat="43.15542" lon="-0.18563">
        <ele>297.67</ele>
        <time>2012-02-07T13:48:37Z</time>
      </trkpt>
      <trkpt lat="43.15533" lon="-0.18561">
        <ele>297.67</ele>
        <time>2012-02-07T13:48:47Z</time>
      </trkpt>
      <trkpt lat="43.15531" lon="-0.18544">
        <ele>297.18</ele>
        <time>2012-02-07T13:49:06Z</time>
      </trkpt>
      <trkpt lat="43.15533" lon="-0.18531">
        <ele>298.63</ele>
        <time>2012-02-07T13:49:18Z</time>
      </trkpt>
      <trkpt lat="43.15526" lon="-0.18525">
        <ele>300.07</ele>
        <time>2012-02-07T13:49:31Z</time>
      </trkpt>
      <trkpt lat="43.15516" lon="-0.18523">
        <ele>301.03</ele>
        <time>2012-02-07T13:49:38Z</time>
      </trkpt>
      <trkpt lat="43.15507" lon="-0.18522">
        <ele>301.51</ele>
        <time>2012-02-07T13:49:46Z</time>
      </trkpt>
      <trkpt lat="43.15498" lon="-0.18521">
        <ele>301.99</ele>
        <time>2012-02-07T13:49:54Z</time>
      </trkpt>
      <trkpt lat="43.1549" lon="-0.1852">
        <ele>301.99</ele>
        <time>2012-02-07T13:50:02Z</time>
      </trkpt>
      <trkpt lat="43.1548" lon="-0.18519">
        <ele>302.47</ele>
        <time>2012-02-07T13:50:21Z</time>
      </trkpt>
      <trkpt lat="43.1547" lon="-0.18518">
        <ele>302.47</ele>
        <time>2012-02-07T13:50:36Z</time>
      </trkpt>
      <trkpt lat="43.15464" lon="-0.18509">
        <ele>301.51</ele>
        <time>2012-02-07T13:50:45Z</time>
      </trkpt>
      <trkpt lat="43.15458" lon="-0.185">
        <ele>301.03</ele>
        <time>2012-02-07T13:50:54Z</time>
      </trkpt>
      <trkpt lat="43.15453" lon="-0.18493">
        <ele>301.03</ele>
        <time>2012-02-07T13:51:05Z</time>
      </trkpt>
      <trkpt lat="43.1545" lon="-0.18479">
        <ele>301.99</ele>
        <time>2012-02-07T13:51:16Z</time>
      </trkpt>
      <trkpt lat="43.15445" lon="-0.18471">
        <ele>302.47</ele>
        <time>2012-02-07T13:51:28Z</time>
      </trkpt>
      <trkpt lat="43.15437" lon="-0.18465">
        <ele>302.95</ele>
        <time>2012-02-07T13:51:35Z</time>
      </trkpt>
      <trkpt lat="43.15427" lon="-0.18461">
        <ele>302.95</ele>
        <time>2012-02-07T13:51:44Z</time>
      </trkpt>
      <trkpt lat="43.15416" lon="-0.18448">
        <ele>303.43</ele>
        <time>2012-02-07T13:51:54Z</time>
      </trkpt>
      <trkpt lat="43.15409" lon="-0.1844">
        <ele>302.95</ele>
        <time>2012-02-07T13:52:07Z</time>
      </trkpt>
      <trkpt lat="43.15403" lon="-0.18426">
        <ele>303.91</ele>
        <time>2012-02-07T13:52:17Z</time>
      </trkpt>
      <trkpt lat="43.15395" lon="-0.18414">
        <ele>304.39</ele>
        <time>2012-02-07T13:52:36Z</time>
      </trkpt>
      <trkpt lat="43.15391" lon="-0.18396">
        <ele>302.95</ele>
        <time>2012-02-07T13:52:46Z</time>
      </trkpt>
      <trkpt lat="43.15388" lon="-0.18384">
        <ele>301.51</ele>
        <time>2012-02-07T13:52:56Z</time>
      </trkpt>
      <trkpt lat="43.15384" lon="-0.18373">
        <ele>300.55</ele>
        <time>2012-02-07T13:53:04Z</time>
      </trkpt>
      <trkpt lat="43.1538" lon="-0.18364">
        <ele>300.07</ele>
        <time>2012-02-07T13:53:18Z</time>
      </trkpt>
      <trkpt lat="43.15371" lon="-0.18362">
        <ele>300.55</ele>
        <time>2012-02-07T13:53:26Z</time>
      </trkpt>
      <trkpt lat="43.15361" lon="-0.18351">
        <ele>300.07</ele>
        <time>2012-02-07T13:53:45Z</time>
      </trkpt>
      <trkpt lat="43.15354" lon="-0.18339">
        <ele>300.07</ele>
        <time>2012-02-07T13:53:54Z</time>
      </trkpt>
      <trkpt lat="43.15348" lon="-0.18319">
        <ele>301.03</ele>
        <time>2012-02-07T13:54:11Z</time>
      </trkpt>
      <trkpt lat="43.15337" lon="-0.18309">
        <ele>301.03</ele>
        <time>2012-02-07T13:54:30Z</time>
      </trkpt>
      <trkpt lat="43.15324" lon="-0.18306">
        <ele>301.03</ele>
        <time>2012-02-07T13:54:38Z</time>
      </trkpt>
      <trkpt lat="43.15312" lon="-0.18308">
        <ele>301.03</ele>
        <time>2012-02-07T13:54:46Z</time>
      </trkpt>
      <trkpt lat="43.15303" lon="-0.18313">
        <ele>300.07</ele>
        <time>2012-02-07T13:54:53Z</time>
      </trkpt>
      <trkpt lat="43.15294" lon="-0.18313">
        <ele>299.11</ele>
        <time>2012-02-07T13:55:00Z</time>
      </trkpt>
      <trkpt lat="43.15283" lon="-0.18311">
        <ele>298.63</ele>
        <time>2012-02-07T13:55:11Z</time>
      </trkpt>
      <trkpt lat="43.15276" lon="-0.18302">
        <ele>298.63</ele>
        <time>2012-02-07T13:55:23Z</time>
      </trkpt>
      <trkpt lat="43.15277" lon="-0.18288">
        <ele>298.63</ele>
        <time>2012-02-07T13:55:37Z</time>
      </trkpt>
      <trkpt lat="43.15279" lon="-0.18275">
        <ele>297.67</ele>
        <time>2012-02-07T13:55:46Z</time>
      </trkpt>
      <trkpt lat="43.15278" lon="-0.18263">
        <ele>298.15</ele>
        <time>2012-02-07T13:56:00Z</time>
      </trkpt>
      <trkpt lat="43.15271" lon="-0.18253">
        <ele>298.63</ele>
        <time>2012-02-07T13:56:11Z</time>
      </trkpt>
      <trkpt lat="43.15264" lon="-0.18246">
        <ele>298.15</ele>
        <time>2012-02-07T13:56:21Z</time>
      </trkpt>
      <trkpt lat="43.15258" lon="-0.18238">
        <ele>298.63</ele>
        <time>2012-02-07T13:56:29Z</time>
      </trkpt>
      <trkpt lat="43.15261" lon="-0.18229">
        <ele>298.63</ele>
        <time>2012-02-07T13:56:43Z</time>
      </trkpt>
      <trkpt lat="43.15254" lon="-0.18234">
        <ele>298.15</ele>
        <time>2012-02-07T13:57:46Z</time>
      </trkpt>
      <trkpt lat="43.15245" lon="-0.18234">
        <ele>297.67</ele>
        <time>2012-02-07T13:59:24Z</time>
      </trkpt>
      <trkpt lat="43.15235" lon="-0.18241">
        <ele>297.67</ele>
        <time>2012-02-07T13:59:34Z</time>
      </trkpt>
      <trkpt lat="43.15221" lon="-0.18242">
        <ele>298.15</ele>
        <time>2012-02-07T13:59:43Z</time>
      </trkpt>
      <trkpt lat="43.15211" lon="-0.18245">
        <ele>298.63</ele>
        <time>2012-02-07T13:59:52Z</time>
      </trkpt>
      <trkpt lat="43.15199" lon="-0.18244">
        <ele>299.11</ele>
        <time>2012-02-07T14:00:02Z</time>
      </trkpt>
      <trkpt lat="43.15189" lon="-0.18245">
        <ele>299.59</ele>
        <time>2012-02-07T14:00:12Z</time>
      </trkpt>
      <trkpt lat="43.15177" lon="-0.18243">
        <ele>299.11</ele>
        <time>2012-02-07T14:00:23Z</time>
      </trkpt>
      <trkpt lat="43.15167" lon="-0.18241">
        <ele>299.59</ele>
        <time>2012-02-07T14:00:32Z</time>
      </trkpt>
      <trkpt lat="43.15157" lon="-0.1824">
        <ele>300.07</ele>
        <time>2012-02-07T14:00:41Z</time>
      </trkpt>
      <trkpt lat="43.15146" lon="-0.18239">
        <ele>299.59</ele>
        <time>2012-02-07T14:00:51Z</time>
      </trkpt>
      <trkpt lat="43.15136" lon="-0.18238">
        <ele>300.07</ele>
        <time>2012-02-07T14:01:00Z</time>
      </trkpt>
      <trkpt lat="43.15126" lon="-0.18235">
        <ele>300.07</ele>
        <time>2012-02-07T14:01:08Z</time>
      </trkpt>
      <trkpt lat="43.15115" lon="-0.18232">
        <ele>300.07</ele>
        <time>2012-02-07T14:01:17Z</time>
      </trkpt>
      <trkpt lat="43.15106" lon="-0.18229">
        <ele>300.55</ele>
        <time>2012-02-07T14:01:25Z</time>
      </trkpt>
      <trkpt lat="43.15101" lon="-0.18221">
        <ele>300.07</ele>
        <time>2012-02-07T14:01:35Z</time>
      </trkpt>
      <trkpt lat="43.15104" lon="-0.1821">
        <ele>300.07</ele>
        <time>2012-02-07T14:01:44Z</time>
      </trkpt>
      <trkpt lat="43.15109" lon="-0.18197">
        <ele>299.59</ele>
        <time>2012-02-07T14:01:54Z</time>
      </trkpt>
      <trkpt lat="43.15113" lon="-0.18184">
        <ele>300.07</ele>
        <time>2012-02-07T14:02:03Z</time>
      </trkpt>
      <trkpt lat="43.15116" lon="-0.18173">
        <ele>300.07</ele>
        <time>2012-02-07T14:02:11Z</time>
      </trkpt>
      <trkpt lat="43.15122" lon="-0.1816">
        <ele>301.03</ele>
        <time>2012-02-07T14:02:19Z</time>
      </trkpt>
      <trkpt lat="43.15126" lon="-0.18147">
        <ele>300.55</ele>
        <time>2012-02-07T14:02:27Z</time>
      </trkpt>
      <trkpt lat="43.1513" lon="-0.18135">
        <ele>300.55</ele>
        <time>2012-02-07T14:02:36Z</time>
      </trkpt>
      <trkpt lat="43.15136" lon="-0.18121">
        <ele>301.99</ele>
        <time>2012-02-07T14:02:47Z</time>
      </trkpt>
      <trkpt lat="43.15139" lon="-0.18108">
        <ele>301.99</ele>
        <time>2012-02-07T14:02:56Z</time>
      </trkpt>
      <trkpt lat="43.15142" lon="-0.18094">
        <ele>302.47</ele>
        <time>2012-02-07T14:03:07Z</time>
      </trkpt>
      <trkpt lat="43.15148" lon="-0.1808">
        <ele>304.39</ele>
        <time>2012-02-07T14:03:18Z</time>
      </trkpt>
      <trkpt lat="43.1515" lon="-0.18069">
        <ele>306.32</ele>
        <time>2012-02-07T14:03:30Z</time>
      </trkpt>
      <trkpt lat="43.15152" lon="-0.18056">
        <ele>308.24</ele>
        <time>2012-02-07T14:03:44Z</time>
      </trkpt>
      <trkpt lat="43.15154" lon="-0.18039">
        <ele>312.57</ele>
        <time>2012-02-07T14:04:10Z</time>
      </trkpt>
      <trkpt lat="43.15152" lon="-0.1802">
        <ele>314.01</ele>
        <time>2012-02-07T14:04:22Z</time>
      </trkpt>
      <trkpt lat="43.15152" lon="-0.18008">
        <ele>316.41</ele>
        <time>2012-02-07T14:04:38Z</time>
      </trkpt>
      <trkpt lat="43.15151" lon="-0.17992">
        <ele>317.37</ele>
        <time>2012-02-07T14:04:47Z</time>
      </trkpt>
      <trkpt lat="43.15149" lon="-0.17971">
        <ele>318.81</ele>
        <time>2012-02-07T14:05:02Z</time>
      </trkpt>
      <trkpt lat="43.15142" lon="-0.17954">
        <ele>320.26</ele>
        <time>2012-02-07T14:05:15Z</time>
      </trkpt>
      <trkpt lat="43.15135" lon="-0.17945">
        <ele>320.74</ele>
        <time>2012-02-07T14:05:25Z</time>
      </trkpt>
      <trkpt lat="43.15128" lon="-0.17931">
        <ele>322.18</ele>
        <time>2012-02-07T14:05:37Z</time>
      </trkpt>
      <trkpt lat="43.15122" lon="-0.17913">
        <ele>324.58</ele>
        <time>2012-02-07T14:05:51Z</time>
      </trkpt>
      <trkpt lat="43.15121" lon="-0.17894">
        <ele>326.02</ele>
        <time>2012-02-07T14:06:05Z</time>
      </trkpt>
      <trkpt lat="43.15119" lon="-0.17879">
        <ele>327.47</ele>
        <time>2012-02-07T14:06:20Z</time>
      </trkpt>
      <trkpt lat="43.15115" lon="-0.17867">
        <ele>329.39</ele>
        <time>2012-02-07T14:06:31Z</time>
      </trkpt>
      <trkpt lat="43.15111" lon="-0.17854">
        <ele>330.83</ele>
        <time>2012-02-07T14:06:42Z</time>
      </trkpt>
      <trkpt lat="43.15107" lon="-0.17841">
        <ele>331.31</ele>
        <time>2012-02-07T14:06:53Z</time>
      </trkpt>
      <trkpt lat="43.15101" lon="-0.17828">
        <ele>333.71</ele>
        <time>2012-02-07T14:07:05Z</time>
      </trkpt>
      <trkpt lat="43.15096" lon="-0.17817">
        <ele>334.68</ele>
        <time>2012-02-07T14:07:17Z</time>
      </trkpt>
      <trkpt lat="43.1509" lon="-0.17804">
        <ele>336.6</ele>
        <time>2012-02-07T14:07:30Z</time>
      </trkpt>
      <trkpt lat="43.15083" lon="-0.17792">
        <ele>338.04</ele>
        <time>2012-02-07T14:07:43Z</time>
      </trkpt>
      <trkpt lat="43.15078" lon="-0.17782">
        <ele>339.96</ele>
        <time>2012-02-07T14:07:56Z</time>
      </trkpt>
      <trkpt lat="43.15069" lon="-0.17772">
        <ele>341.89</ele>
        <time>2012-02-07T14:08:09Z</time>
      </trkpt>
      <trkpt lat="43.1506" lon="-0.17757">
        <ele>343.81</ele>
        <time>2012-02-07T14:08:23Z</time>
      </trkpt>
      <trkpt lat="43.15053" lon="-0.17747">
        <ele>345.25</ele>
        <time>2012-02-07T14:08:35Z</time>
      </trkpt>
      <trkpt lat="43.15046" lon="-0.17738">
        <ele>346.69</ele>
        <time>2012-02-07T14:08:58Z</time>
      </trkpt>
      <trkpt lat="43.15038" lon="-0.17728">
        <ele>347.65</ele>
        <time>2012-02-07T14:09:08Z</time>
      </trkpt>
      <trkpt lat="43.15032" lon="-0.17718">
        <ele>348.62</ele>
        <time>2012-02-07T14:09:17Z</time>
      </trkpt>
      <trkpt lat="43.15026" lon="-0.17709">
        <ele>350.06</ele>
        <time>2012-02-07T14:09:27Z</time>
      </trkpt>
      <trkpt lat="43.15017" lon="-0.17699">
        <ele>351.5</ele>
        <time>2012-02-07T14:09:37Z</time>
      </trkpt>
      <trkpt lat="43.15009" lon="-0.17691">
        <ele>353.9</ele>
        <time>2012-02-07T14:09:48Z</time>
      </trkpt>
      <trkpt lat="43.15001" lon="-0.17682">
        <ele>354.86</ele>
        <time>2012-02-07T14:10:00Z</time>
      </trkpt>
      <trkpt lat="43.14993" lon="-0.17672">
        <ele>356.79</ele>
        <time>2012-02-07T14:10:12Z</time>
      </trkpt>
      <trkpt lat="43.14985" lon="-0.17661">
        <ele>358.71</ele>
        <time>2012-02-07T14:10:24Z</time>
      </trkpt>
      <trkpt lat="43.14978" lon="-0.17652">
        <ele>359.67</ele>
        <time>2012-02-07T14:10:36Z</time>
      </trkpt>
      <trkpt lat="43.14971" lon="-0.17642">
        <ele>361.11</ele>
        <time>2012-02-07T14:10:47Z</time>
      </trkpt>
      <trkpt lat="43.14963" lon="-0.17632">
        <ele>362.07</ele>
        <time>2012-02-07T14:10:58Z</time>
      </trkpt>
      <trkpt lat="43.14954" lon="-0.1762">
        <ele>363.04</ele>
        <time>2012-02-07T14:11:09Z</time>
      </trkpt>
      <trkpt lat="43.14948" lon="-0.17609">
        <ele>364</ele>
        <time>2012-02-07T14:11:18Z</time>
      </trkpt>
      <trkpt lat="43.1494" lon="-0.17599">
        <ele>364.96</ele>
        <time>2012-02-07T14:11:28Z</time>
      </trkpt>
      <trkpt lat="43.14933" lon="-0.17587">
        <ele>365.44</ele>
        <time>2012-02-07T14:11:38Z</time>
      </trkpt>
      <trkpt lat="43.14925" lon="-0.17575">
        <ele>365.92</ele>
        <time>2012-02-07T14:11:48Z</time>
      </trkpt>
      <trkpt lat="43.14917" lon="-0.17567">
        <ele>366.88</ele>
        <time>2012-02-07T14:12:01Z</time>
      </trkpt>
      <trkpt lat="43.14904" lon="-0.1756">
        <ele>366.88</ele>
        <time>2012-02-07T14:12:14Z</time>
      </trkpt>
      <trkpt lat="43.14892" lon="-0.1756">
        <ele>368.32</ele>
        <time>2012-02-07T14:12:25Z</time>
      </trkpt>
      <trkpt lat="43.14882" lon="-0.17563">
        <ele>369.76</ele>
        <time>2012-02-07T14:12:35Z</time>
      </trkpt>
      <trkpt lat="43.14871" lon="-0.17564">
        <ele>371.69</ele>
        <time>2012-02-07T14:12:46Z</time>
      </trkpt>
      <trkpt lat="43.1486" lon="-0.17561">
        <ele>373.61</ele>
        <time>2012-02-07T14:12:58Z</time>
      </trkpt>
      <trkpt lat="43.14853" lon="-0.17554">
        <ele>375.53</ele>
        <time>2012-02-07T14:13:11Z</time>
      </trkpt>
      <trkpt lat="43.14845" lon="-0.17548">
        <ele>378.42</ele>
        <time>2012-02-07T14:13:25Z</time>
      </trkpt>
      <trkpt lat="43.14837" lon="-0.17541">
        <ele>380.82</ele>
        <time>2012-02-07T14:13:41Z</time>
      </trkpt>
      <trkpt lat="43.1483" lon="-0.17535">
        <ele>382.74</ele>
        <time>2012-02-07T14:13:52Z</time>
      </trkpt>
      <trkpt lat="43.14822" lon="-0.17528">
        <ele>384.18</ele>
        <time>2012-02-07T14:14:02Z</time>
      </trkpt>
      <trkpt lat="43.1482" lon="-0.17513">
        <ele>386.59</ele>
        <time>2012-02-07T14:14:17Z</time>
      </trkpt>
      <trkpt lat="43.1482" lon="-0.17498">
        <ele>388.51</ele>
        <time>2012-02-07T14:14:29Z</time>
      </trkpt>
      <trkpt lat="43.14817" lon="-0.17483">
        <ele>389.47</ele>
        <time>2012-02-07T14:14:41Z</time>
      </trkpt>
      <trkpt lat="43.14815" lon="-0.17469">
        <ele>390.43</ele>
        <time>2012-02-07T14:14:53Z</time>
      </trkpt>
      <trkpt lat="43.14812" lon="-0.17454">
        <ele>391.87</ele>
        <time>2012-02-07T14:15:05Z</time>
      </trkpt>
      <trkpt lat="43.14807" lon="-0.1744">
        <ele>392.84</ele>
        <time>2012-02-07T14:15:17Z</time>
      </trkpt>
      <trkpt lat="43.14803" lon="-0.17423">
        <ele>393.8</ele>
        <time>2012-02-07T14:15:30Z</time>
      </trkpt>
      <trkpt lat="43.14798" lon="-0.17409">
        <ele>395.72</ele>
        <time>2012-02-07T14:15:44Z</time>
      </trkpt>
      <trkpt lat="43.14791" lon="-0.17394">
        <ele>396.68</ele>
        <time>2012-02-07T14:15:56Z</time>
      </trkpt>
      <trkpt lat="43.14787" lon="-0.17383">
        <ele>398.12</ele>
        <time>2012-02-07T14:16:06Z</time>
      </trkpt>
      <trkpt lat="43.14782" lon="-0.17372">
        <ele>398.6</ele>
        <time>2012-02-07T14:16:16Z</time>
      </trkpt>
      <trkpt lat="43.14778" lon="-0.17366">
        <ele>397.16</ele>
        <time>2012-02-07T14:22:05Z</time>
      </trkpt>
      <trkpt lat="43.14779" lon="-0.17355">
        <ele>396.68</ele>
        <time>2012-02-07T14:23:13Z</time>
      </trkpt>
      <trkpt lat="43.14779" lon="-0.1734">
        <ele>397.16</ele>
        <time>2012-02-07T14:23:24Z</time>
      </trkpt>
      <trkpt lat="43.14777" lon="-0.17327">
        <ele>397.16</ele>
        <time>2012-02-07T14:23:34Z</time>
      </trkpt>
      <trkpt lat="43.14779" lon="-0.17311">
        <ele>397.16</ele>
        <time>2012-02-07T14:23:44Z</time>
      </trkpt>
      <trkpt lat="43.14781" lon="-0.17297">
        <ele>396.68</ele>
        <time>2012-02-07T14:23:54Z</time>
      </trkpt>
      <trkpt lat="43.14778" lon="-0.17282">
        <ele>396.68</ele>
        <time>2012-02-07T14:24:04Z</time>
      </trkpt>
      <trkpt lat="43.14778" lon="-0.17268">
        <ele>396.2</ele>
        <time>2012-02-07T14:24:13Z</time>
      </trkpt>
      <trkpt lat="43.1478" lon="-0.17255">
        <ele>395.72</ele>
        <time>2012-02-07T14:24:22Z</time>
      </trkpt>
      <trkpt lat="43.14777" lon="-0.17243">
        <ele>395.72</ele>
        <time>2012-02-07T14:24:33Z</time>
      </trkpt>
      <trkpt lat="43.14775" lon="-0.17229">
        <ele>395.72</ele>
        <time>2012-02-07T14:24:42Z</time>
      </trkpt>
      <trkpt lat="43.14773" lon="-0.17214">
        <ele>395.72</ele>
        <time>2012-02-07T14:24:52Z</time>
      </trkpt>
      <trkpt lat="43.14772" lon="-0.172">
        <ele>395.72</ele>
        <time>2012-02-07T14:25:02Z</time>
      </trkpt>
      <trkpt lat="43.14772" lon="-0.17187">
        <ele>396.2</ele>
        <time>2012-02-07T14:25:11Z</time>
      </trkpt>
      <trkpt lat="43.14772" lon="-0.17174">
        <ele>397.16</ele>
        <time>2012-02-07T14:25:20Z</time>
      </trkpt>
      <trkpt lat="43.14771" lon="-0.17161">
        <ele>397.64</ele>
        <time>2012-02-07T14:25:30Z</time>
      </trkpt>
      <trkpt lat="43.14771" lon="-0.17148">
        <ele>396.68</ele>
        <time>2012-02-07T14:25:40Z</time>
      </trkpt>
      <trkpt lat="43.14771" lon="-0.17134">
        <ele>396.68</ele>
        <time>2012-02-07T14:25:51Z</time>
      </trkpt>
      <trkpt lat="43.14772" lon="-0.1712">
        <ele>395.72</ele>
        <time>2012-02-07T14:25:59Z</time>
      </trkpt>
      <trkpt lat="43.14773" lon="-0.17107">
        <ele>395.72</ele>
        <time>2012-02-07T14:26:08Z</time>
      </trkpt>
      <trkpt lat="43.14772" lon="-0.17094">
        <ele>394.76</ele>
        <time>2012-02-07T14:26:17Z</time>
      </trkpt>
      <trkpt lat="43.14773" lon="-0.1708">
        <ele>394.28</ele>
        <time>2012-02-07T14:26:26Z</time>
      </trkpt>
      <trkpt lat="43.14775" lon="-0.17066">
        <ele>393.32</ele>
        <time>2012-02-07T14:26:35Z</time>
      </trkpt>
      <trkpt lat="43.14779" lon="-0.17052">
        <ele>393.8</ele>
        <time>2012-02-07T14:26:45Z</time>
      </trkpt>
      <trkpt lat="43.14776" lon="-0.17038">
        <ele>393.32</ele>
        <time>2012-02-07T14:26:54Z</time>
      </trkpt>
      <trkpt lat="43.14775" lon="-0.17026">
        <ele>393.32</ele>
        <time>2012-02-07T14:27:02Z</time>
      </trkpt>
      <trkpt lat="43.14774" lon="-0.17013">
        <ele>392.84</ele>
        <time>2012-02-07T14:27:10Z</time>
      </trkpt>
      <trkpt lat="43.14777" lon="-0.17001">
        <ele>393.32</ele>
        <time>2012-02-07T14:27:18Z</time>
      </trkpt>
      <trkpt lat="43.14779" lon="-0.16989">
        <ele>393.8</ele>
        <time>2012-02-07T14:27:27Z</time>
      </trkpt>
      <trkpt lat="43.14781" lon="-0.16976">
        <ele>394.28</ele>
        <time>2012-02-07T14:27:37Z</time>
      </trkpt>
      <trkpt lat="43.14784" lon="-0.16962">
        <ele>394.28</ele>
        <time>2012-02-07T14:27:46Z</time>
      </trkpt>
      <trkpt lat="43.14785" lon="-0.16949">
        <ele>394.76</ele>
        <time>2012-02-07T14:27:55Z</time>
      </trkpt>
      <trkpt lat="43.14787" lon="-0.16936">
        <ele>395.24</ele>
        <time>2012-02-07T14:28:04Z</time>
      </trkpt>
      <trkpt lat="43.1479" lon="-0.16922">
        <ele>395.24</ele>
        <time>2012-02-07T14:28:24Z</time>
      </trkpt>
      <trkpt lat="43.14793" lon="-0.1691">
        <ele>395.72</ele>
        <time>2012-02-07T14:28:34Z</time>
      </trkpt>
      <trkpt lat="43.14796" lon="-0.16897">
        <ele>396.2</ele>
        <time>2012-02-07T14:28:43Z</time>
      </trkpt>
      <trkpt lat="43.14798" lon="-0.16884">
        <ele>397.16</ele>
        <time>2012-02-07T14:28:52Z</time>
      </trkpt>
      <trkpt lat="43.14801" lon="-0.16872">
        <ele>397.16</ele>
        <time>2012-02-07T14:29:01Z</time>
      </trkpt>
      <trkpt lat="43.14803" lon="-0.1686">
        <ele>397.64</ele>
        <time>2012-02-07T14:29:09Z</time>
      </trkpt>
      <trkpt lat="43.14806" lon="-0.16847">
        <ele>397.64</ele>
        <time>2012-02-07T14:29:17Z</time>
      </trkpt>
      <trkpt lat="43.14811" lon="-0.16835">
        <ele>397.64</ele>
        <time>2012-02-07T14:29:25Z</time>
      </trkpt>
      <trkpt lat="43.14816" lon="-0.16825">
        <ele>397.64</ele>
        <time>2012-02-07T14:29:33Z</time>
      </trkpt>
      <trkpt lat="43.14823" lon="-0.16815">
        <ele>397.64</ele>
        <time>2012-02-07T14:29:42Z</time>
      </trkpt>
      <trkpt lat="43.1483" lon="-0.16803">
        <ele>397.64</ele>
        <time>2012-02-07T14:29:51Z</time>
      </trkpt>
      <trkpt lat="43.14836" lon="-0.16789">
        <ele>397.16</ele>
        <time>2012-02-07T14:30:01Z</time>
      </trkpt>
      <trkpt lat="43.14839" lon="-0.16776">
        <ele>397.64</ele>
        <time>2012-02-07T14:30:10Z</time>
      </trkpt>
      <trkpt lat="43.14842" lon="-0.16763">
        <ele>397.16</ele>
        <time>2012-02-07T14:30:21Z</time>
      </trkpt>
      <trkpt lat="43.14843" lon="-0.16749">
        <ele>397.64</ele>
        <time>2012-02-07T14:30:31Z</time>
      </trkpt>
      <trkpt lat="43.14844" lon="-0.16733">
        <ele>398.12</ele>
        <time>2012-02-07T14:30:44Z</time>
      </trkpt>
      <trkpt lat="43.14844" lon="-0.16717">
        <ele>399.57</ele>
        <time>2012-02-07T14:30:56Z</time>
      </trkpt>
      <trkpt lat="43.14842" lon="-0.16702">
        <ele>400.53</ele>
        <time>2012-02-07T14:31:06Z</time>
      </trkpt>
      <trkpt lat="43.14842" lon="-0.16685">
        <ele>401.49</ele>
        <time>2012-02-07T14:31:17Z</time>
      </trkpt>
      <trkpt lat="43.14847" lon="-0.16672">
        <ele>403.41</ele>
        <time>2012-02-07T14:31:30Z</time>
      </trkpt>
      <trkpt lat="43.14853" lon="-0.16656">
        <ele>404.85</ele>
        <time>2012-02-07T14:31:42Z</time>
      </trkpt>
      <trkpt lat="43.14856" lon="-0.1664">
        <ele>407.26</ele>
        <time>2012-02-07T14:31:53Z</time>
      </trkpt>
      <trkpt lat="43.14859" lon="-0.16627">
        <ele>408.22</ele>
        <time>2012-02-07T14:32:02Z</time>
      </trkpt>
      <trkpt lat="43.14859" lon="-0.16613">
        <ele>410.14</ele>
        <time>2012-02-07T14:32:12Z</time>
      </trkpt>
      <trkpt lat="43.14859" lon="-0.166">
        <ele>411.58</ele>
        <time>2012-02-07T14:32:21Z</time>
      </trkpt>
      <trkpt lat="43.1486" lon="-0.16587">
        <ele>412.54</ele>
        <time>2012-02-07T14:32:31Z</time>
      </trkpt>
      <trkpt lat="43.14861" lon="-0.16573">
        <ele>414.95</ele>
        <time>2012-02-07T14:32:42Z</time>
      </trkpt>
      <trkpt lat="43.14861" lon="-0.16559">
        <ele>416.87</ele>
        <time>2012-02-07T14:32:52Z</time>
      </trkpt>
      <trkpt lat="43.14862" lon="-0.16544">
        <ele>418.31</ele>
        <time>2012-02-07T14:33:02Z</time>
      </trkpt>
      <trkpt lat="43.14859" lon="-0.16529">
        <ele>420.23</ele>
        <time>2012-02-07T14:33:12Z</time>
      </trkpt>
      <trkpt lat="43.14855" lon="-0.16516">
        <ele>421.19</ele>
        <time>2012-02-07T14:33:21Z</time>
      </trkpt>
      <trkpt lat="43.1485" lon="-0.165">
        <ele>422.16</ele>
        <time>2012-02-07T14:33:31Z</time>
      </trkpt>
      <trkpt lat="43.14845" lon="-0.16486">
        <ele>423.12</ele>
        <time>2012-02-07T14:33:42Z</time>
      </trkpt>
      <trkpt lat="43.14841" lon="-0.16475">
        <ele>424.08</ele>
        <time>2012-02-07T14:34:01Z</time>
      </trkpt>
      <trkpt lat="43.1484" lon="-0.16465">
        <ele>425.04</ele>
        <time>2012-02-07T14:35:33Z</time>
      </trkpt>
      <trkpt lat="43.14836" lon="-0.16467">
        <ele>424.56</ele>
        <time>2012-02-07T14:39:27Z</time>
      </trkpt>
      <trkpt lat="43.14833" lon="-0.16453">
        <ele>425.52</ele>
        <time>2012-02-07T14:39:37Z</time>
      </trkpt>
      <trkpt lat="43.14829" lon="-0.1644">
        <ele>425.52</ele>
        <time>2012-02-07T14:39:46Z</time>
      </trkpt>
      <trkpt lat="43.14824" lon="-0.16425">
        <ele>426</ele>
        <time>2012-02-07T14:39:57Z</time>
      </trkpt>
      <trkpt lat="43.14818" lon="-0.16415">
        <ele>426</ele>
        <time>2012-02-07T14:40:10Z</time>
      </trkpt>
      <trkpt lat="43.14812" lon="-0.16404">
        <ele>426.48</ele>
        <time>2012-02-07T14:40:24Z</time>
      </trkpt>
      <trkpt lat="43.14804" lon="-0.16391">
        <ele>426.96</ele>
        <time>2012-02-07T14:40:35Z</time>
      </trkpt>
      <trkpt lat="43.14798" lon="-0.16379">
        <ele>427.44</ele>
        <time>2012-02-07T14:40:48Z</time>
      </trkpt>
      <trkpt lat="43.1479" lon="-0.16364">
        <ele>427.92</ele>
        <time>2012-02-07T14:41:01Z</time>
      </trkpt>
      <trkpt lat="43.14782" lon="-0.16347">
        <ele>428.89</ele>
        <time>2012-02-07T14:41:14Z</time>
      </trkpt>
      <trkpt lat="43.14775" lon="-0.16333">
        <ele>428.89</ele>
        <time>2012-02-07T14:41:26Z</time>
      </trkpt>
      <trkpt lat="43.14769" lon="-0.16317">
        <ele>429.85</ele>
        <time>2012-02-07T14:41:38Z</time>
      </trkpt>
      <trkpt lat="43.14763" lon="-0.16303">
        <ele>430.81</ele>
        <time>2012-02-07T14:41:51Z</time>
      </trkpt>
      <trkpt lat="43.14756" lon="-0.16288">
        <ele>431.29</ele>
        <time>2012-02-07T14:42:02Z</time>
      </trkpt>
      <trkpt lat="43.14749" lon="-0.16276">
        <ele>431.77</ele>
        <time>2012-02-07T14:42:16Z</time>
      </trkpt>
      <trkpt lat="43.14741" lon="-0.16266">
        <ele>432.73</ele>
        <time>2012-02-07T14:42:27Z</time>
      </trkpt>
      <trkpt lat="43.14735" lon="-0.16256">
        <ele>433.69</ele>
        <time>2012-02-07T14:42:38Z</time>
      </trkpt>
      <trkpt lat="43.14725" lon="-0.16244">
        <ele>434.65</ele>
        <time>2012-02-07T14:42:51Z</time>
      </trkpt>
      <trkpt lat="43.14719" lon="-0.1623">
        <ele>435.61</ele>
        <time>2012-02-07T14:43:04Z</time>
      </trkpt>
      <trkpt lat="43.14715" lon="-0.16217">
        <ele>436.58</ele>
        <time>2012-02-07T14:43:15Z</time>
      </trkpt>
      <trkpt lat="43.14711" lon="-0.16205">
        <ele>437.06</ele>
        <time>2012-02-07T14:43:24Z</time>
      </trkpt>
      <trkpt lat="43.14706" lon="-0.16191">
        <ele>438.02</ele>
        <time>2012-02-07T14:43:38Z</time>
      </trkpt>
      <trkpt lat="43.14704" lon="-0.16177">
        <ele>438.5</ele>
        <time>2012-02-07T14:44:12Z</time>
      </trkpt>
      <trkpt lat="43.14701" lon="-0.16164">
        <ele>438.98</ele>
        <time>2012-02-07T14:44:26Z</time>
      </trkpt>
      <trkpt lat="43.14696" lon="-0.16149">
        <ele>438.5</ele>
        <time>2012-02-07T14:44:40Z</time>
      </trkpt>
      <trkpt lat="43.14689" lon="-0.16132">
        <ele>438.5</ele>
        <time>2012-02-07T14:45:07Z</time>
      </trkpt>
      <trkpt lat="43.14681" lon="-0.16116">
        <ele>438.98</ele>
        <time>2012-02-07T14:45:21Z</time>
      </trkpt>
      <trkpt lat="43.14676" lon="-0.16101">
        <ele>440.42</ele>
        <time>2012-02-07T14:45:32Z</time>
      </trkpt>
      <trkpt lat="43.14668" lon="-0.16083">
        <ele>440.9</ele>
        <time>2012-02-07T14:45:44Z</time>
      </trkpt>
      <trkpt lat="43.14663" lon="-0.16069">
        <ele>440.9</ele>
        <time>2012-02-07T14:45:58Z</time>
      </trkpt>
      <trkpt lat="43.14662" lon="-0.16056">
        <ele>440.9</ele>
        <time>2012-02-07T14:46:10Z</time>
      </trkpt>
      <trkpt lat="43.14659" lon="-0.16041">
        <ele>441.38</ele>
        <time>2012-02-07T14:46:21Z</time>
      </trkpt>
      <trkpt lat="43.14657" lon="-0.16028">
        <ele>441.38</ele>
        <time>2012-02-07T14:46:30Z</time>
      </trkpt>
      <trkpt lat="43.14655" lon="-0.16015">
        <ele>440.9</ele>
        <time>2012-02-07T14:46:40Z</time>
      </trkpt>
      <trkpt lat="43.14653" lon="-0.16002">
        <ele>441.86</ele>
        <time>2012-02-07T14:46:50Z</time>
      </trkpt>
      <trkpt lat="43.14649" lon="-0.1599">
        <ele>442.82</ele>
        <time>2012-02-07T14:47:00Z</time>
      </trkpt>
      <trkpt lat="43.14643" lon="-0.15978">
        <ele>444.27</ele>
        <time>2012-02-07T14:47:11Z</time>
      </trkpt>
      <trkpt lat="43.14637" lon="-0.15965">
        <ele>445.23</ele>
        <time>2012-02-07T14:47:23Z</time>
      </trkpt>
      <trkpt lat="43.1463" lon="-0.15953">
        <ele>446.19</ele>
        <time>2012-02-07T14:47:33Z</time>
      </trkpt>
      <trkpt lat="43.14622" lon="-0.15941">
        <ele>447.63</ele>
        <time>2012-02-07T14:47:44Z</time>
      </trkpt>
      <trkpt lat="43.14614" lon="-0.15925">
        <ele>448.11</ele>
        <time>2012-02-07T14:47:55Z</time>
      </trkpt>
      <trkpt lat="43.14611" lon="-0.15912">
        <ele>448.59</ele>
        <time>2012-02-07T14:48:05Z</time>
      </trkpt>
      <trkpt lat="43.14605" lon="-0.15898">
        <ele>449.55</ele>
        <time>2012-02-07T14:48:16Z</time>
      </trkpt>
      <trkpt lat="43.146" lon="-0.15886">
        <ele>450.03</ele>
        <time>2012-02-07T14:48:28Z</time>
      </trkpt>
      <trkpt lat="43.14595" lon="-0.15871">
        <ele>451</ele>
        <time>2012-02-07T14:48:37Z</time>
      </trkpt>
      <trkpt lat="43.14588" lon="-0.15862">
        <ele>450.52</ele>
        <time>2012-02-07T14:48:48Z</time>
      </trkpt>
      <trkpt lat="43.1458" lon="-0.15849">
        <ele>450.03</ele>
        <time>2012-02-07T14:48:58Z</time>
      </trkpt>
      <trkpt lat="43.14578" lon="-0.15837">
        <ele>450.03</ele>
        <time>2012-02-07T14:49:08Z</time>
      </trkpt>
      <trkpt lat="43.14571" lon="-0.15823">
        <ele>451</ele>
        <time>2012-02-07T14:49:20Z</time>
      </trkpt>
      <trkpt lat="43.14569" lon="-0.15807">
        <ele>451.48</ele>
        <time>2012-02-07T14:49:30Z</time>
      </trkpt>
      <trkpt lat="43.14564" lon="-0.15793">
        <ele>452.44</ele>
        <time>2012-02-07T14:49:41Z</time>
      </trkpt>
      <trkpt lat="43.14559" lon="-0.15782">
        <ele>453.4</ele>
        <time>2012-02-07T14:49:49Z</time>
      </trkpt>
      <trkpt lat="43.14555" lon="-0.15769">
        <ele>453.88</ele>
        <time>2012-02-07T14:49:57Z</time>
      </trkpt>
      <trkpt lat="43.14551" lon="-0.15757">
        <ele>455.32</ele>
        <time>2012-02-07T14:50:08Z</time>
      </trkpt>
      <trkpt lat="43.14545" lon="-0.15736">
        <ele>456.28</ele>
        <time>2012-02-07T14:50:21Z</time>
      </trkpt>
      <trkpt lat="43.14542" lon="-0.15725">
        <ele>456.76</ele>
        <time>2012-02-07T14:50:32Z</time>
      </trkpt>
      <trkpt lat="43.14536" lon="-0.15713">
        <ele>456.76</ele>
        <time>2012-02-07T14:50:41Z</time>
      </trkpt>
      <trkpt lat="43.14528" lon="-0.15699">
        <ele>457.72</ele>
        <time>2012-02-07T14:50:50Z</time>
      </trkpt>
      <trkpt lat="43.14521" lon="-0.15688">
        <ele>457.72</ele>
        <time>2012-02-07T14:51:01Z</time>
      </trkpt>
      <trkpt lat="43.14516" lon="-0.15685">
        <ele>458.69</ele>
        <time>2012-02-07T14:52:05Z</time>
      </trkpt>
      <trkpt lat="43.14514" lon="-0.15687">
        <ele>457.72</ele>
        <time>2012-02-07T14:53:20Z</time>
      </trkpt>
      <trkpt lat="43.14505" lon="-0.15681">
        <ele>458.21</ele>
        <time>2012-02-07T14:55:41Z</time>
      </trkpt>
      <trkpt lat="43.14496" lon="-0.15676">
        <ele>458.21</ele>
        <time>2012-02-07T14:55:49Z</time>
      </trkpt>
      <trkpt lat="43.14488" lon="-0.1567">
        <ele>458.69</ele>
        <time>2012-02-07T14:55:58Z</time>
      </trkpt>
      <trkpt lat="43.14478" lon="-0.15665">
        <ele>459.17</ele>
        <time>2012-02-07T14:56:07Z</time>
      </trkpt>
      <trkpt lat="43.14469" lon="-0.15661">
        <ele>458.69</ele>
        <time>2012-02-07T14:56:17Z</time>
      </trkpt>
      <trkpt lat="43.1446" lon="-0.15655">
        <ele>460.13</ele>
        <time>2012-02-07T14:56:26Z</time>
      </trkpt>
      <trkpt lat="43.14452" lon="-0.1565">
        <ele>460.13</ele>
        <time>2012-02-07T14:56:34Z</time>
      </trkpt>
      <trkpt lat="43.14442" lon="-0.15644">
        <ele>460.61</ele>
        <time>2012-02-07T14:56:42Z</time>
      </trkpt>
      <trkpt lat="43.14433" lon="-0.15638">
        <ele>461.09</ele>
        <time>2012-02-07T14:56:51Z</time>
      </trkpt>
      <trkpt lat="43.14425" lon="-0.1563">
        <ele>462.05</ele>
        <time>2012-02-07T14:56:59Z</time>
      </trkpt>
      <trkpt lat="43.14418" lon="-0.15622">
        <ele>462.05</ele>
        <time>2012-02-07T14:57:07Z</time>
      </trkpt>
      <trkpt lat="43.14411" lon="-0.15613">
        <ele>463.01</ele>
        <time>2012-02-07T14:57:15Z</time>
      </trkpt>
      <trkpt lat="43.14405" lon="-0.15604">
        <ele>463.49</ele>
        <time>2012-02-07T14:57:23Z</time>
      </trkpt>
      <trkpt lat="43.14398" lon="-0.15595">
        <ele>463.01</ele>
        <time>2012-02-07T14:57:31Z</time>
      </trkpt>
      <trkpt lat="43.14393" lon="-0.15587">
        <ele>462.53</ele>
        <time>2012-02-07T14:57:38Z</time>
      </trkpt>
      <trkpt lat="43.14386" lon="-0.15577">
        <ele>461.57</ele>
        <time>2012-02-07T14:57:47Z</time>
      </trkpt>
      <trkpt lat="43.14381" lon="-0.15565">
        <ele>460.13</ele>
        <time>2012-02-07T14:57:56Z</time>
      </trkpt>
      <trkpt lat="43.14376" lon="-0.15552">
        <ele>458.69</ele>
        <time>2012-02-07T14:58:06Z</time>
      </trkpt>
      <trkpt lat="43.14376" lon="-0.1554">
        <ele>458.69</ele>
        <time>2012-02-07T14:58:19Z</time>
      </trkpt>
      <trkpt lat="43.14375" lon="-0.15533">
        <ele>457.72</ele>
        <time>2012-02-07T14:59:04Z</time>
      </trkpt>
      <trkpt lat="43.14382" lon="-0.15523">
        <ele>456.76</ele>
        <time>2012-02-07T15:00:36Z</time>
      </trkpt>
      <trkpt lat="43.14388" lon="-0.15511">
        <ele>455.8</ele>
        <time>2012-02-07T15:00:44Z</time>
      </trkpt>
      <trkpt lat="43.14394" lon="-0.15501">
        <ele>454.84</ele>
        <time>2012-02-07T15:00:52Z</time>
      </trkpt>
      <trkpt lat="43.14401" lon="-0.1549">
        <ele>454.84</ele>
        <time>2012-02-07T15:01:01Z</time>
      </trkpt>
      <trkpt lat="43.14405" lon="-0.15479">
        <ele>453.88</ele>
        <time>2012-02-07T15:01:09Z</time>
      </trkpt>
      <trkpt lat="43.14407" lon="-0.15466">
        <ele>453.4</ele>
        <time>2012-02-07T15:01:17Z</time>
      </trkpt>
      <trkpt lat="43.14408" lon="-0.15453">
        <ele>453.4</ele>
        <time>2012-02-07T15:01:25Z</time>
      </trkpt>
      <trkpt lat="43.1441" lon="-0.1544">
        <ele>451.96</ele>
        <time>2012-02-07T15:01:33Z</time>
      </trkpt>
      <trkpt lat="43.14411" lon="-0.15429">
        <ele>451.48</ele>
        <time>2012-02-07T15:01:41Z</time>
      </trkpt>
      <trkpt lat="43.14413" lon="-0.15417">
        <ele>451</ele>
        <time>2012-02-07T15:01:49Z</time>
      </trkpt>
      <trkpt lat="43.14416" lon="-0.15404">
        <ele>450.03</ele>
        <time>2012-02-07T15:01:57Z</time>
      </trkpt>
      <trkpt lat="43.14418" lon="-0.15391">
        <ele>449.55</ele>
        <time>2012-02-07T15:02:05Z</time>
      </trkpt>
      <trkpt lat="43.14422" lon="-0.1538">
        <ele>448.59</ele>
        <time>2012-02-07T15:02:13Z</time>
      </trkpt>
      <trkpt lat="43.14423" lon="-0.15366">
        <ele>447.15</ele>
        <time>2012-02-07T15:02:24Z</time>
      </trkpt>
      <trkpt lat="43.14427" lon="-0.15356">
        <ele>446.67</ele>
        <time>2012-02-07T15:02:31Z</time>
      </trkpt>
      <trkpt lat="43.14426" lon="-0.15342">
        <ele>446.67</ele>
        <time>2012-02-07T15:02:39Z</time>
      </trkpt>
      <trkpt lat="43.14429" lon="-0.15329">
        <ele>446.19</ele>
        <time>2012-02-07T15:02:48Z</time>
      </trkpt>
      <trkpt lat="43.14433" lon="-0.15317">
        <ele>446.19</ele>
        <time>2012-02-07T15:02:59Z</time>
      </trkpt>
      <trkpt lat="43.14435" lon="-0.15305">
        <ele>444.75</ele>
        <time>2012-02-07T15:03:13Z</time>
      </trkpt>
      <trkpt lat="43.14438" lon="-0.15292">
        <ele>445.71</ele>
        <time>2012-02-07T15:03:21Z</time>
      </trkpt>
      <trkpt lat="43.1444" lon="-0.15278">
        <ele>445.23</ele>
        <time>2012-02-07T15:03:30Z</time>
      </trkpt>
      <trkpt lat="43.14443" lon="-0.15265">
        <ele>444.75</ele>
        <time>2012-02-07T15:03:37Z</time>
      </trkpt>
      <trkpt lat="43.14446" lon="-0.15253">
        <ele>443.79</ele>
        <time>2012-02-07T15:03:44Z</time>
      </trkpt>
      <trkpt lat="43.14448" lon="-0.15241">
        <ele>443.79</ele>
        <time>2012-02-07T15:03:51Z</time>
      </trkpt>
      <trkpt lat="43.14451" lon="-0.15228">
        <ele>444.75</ele>
        <time>2012-02-07T15:04:00Z</time>
      </trkpt>
      <trkpt lat="43.14458" lon="-0.15216">
        <ele>443.79</ele>
        <time>2012-02-07T15:04:08Z</time>
      </trkpt>
      <trkpt lat="43.14463" lon="-0.15201">
        <ele>444.27</ele>
        <time>2012-02-07T15:04:17Z</time>
      </trkpt>
      <trkpt lat="43.14467" lon="-0.15189">
        <ele>442.82</ele>
        <time>2012-02-07T15:04:25Z</time>
      </trkpt>
      <trkpt lat="43.14469" lon="-0.15177">
        <ele>442.82</ele>
        <time>2012-02-07T15:04:33Z</time>
      </trkpt>
      <trkpt lat="43.14473" lon="-0.15163">
        <ele>444.27</ele>
        <time>2012-02-07T15:04:42Z</time>
      </trkpt>
      <trkpt lat="43.14476" lon="-0.1515">
        <ele>444.27</ele>
        <time>2012-02-07T15:04:51Z</time>
      </trkpt>
      <trkpt lat="43.1448" lon="-0.15137">
        <ele>444.27</ele>
        <time>2012-02-07T15:05:00Z</time>
      </trkpt>
      <trkpt lat="43.14484" lon="-0.15122">
        <ele>444.27</ele>
        <time>2012-02-07T15:05:10Z</time>
      </trkpt>
      <trkpt lat="43.1449" lon="-0.15109">
        <ele>444.75</ele>
        <time>2012-02-07T15:05:19Z</time>
      </trkpt>
      <trkpt lat="43.14495" lon="-0.15096">
        <ele>444.75</ele>
        <time>2012-02-07T15:05:29Z</time>
      </trkpt>
      <trkpt lat="43.14502" lon="-0.15087">
        <ele>445.23</ele>
        <time>2012-02-07T15:05:38Z</time>
      </trkpt>
      <trkpt lat="43.14506" lon="-0.15072">
        <ele>446.19</ele>
        <time>2012-02-07T15:05:47Z</time>
      </trkpt>
      <trkpt lat="43.14511" lon="-0.15061">
        <ele>446.19</ele>
        <time>2012-02-07T15:05:56Z</time>
      </trkpt>
      <trkpt lat="43.14516" lon="-0.1505">
        <ele>448.11</ele>
        <time>2012-02-07T15:06:04Z</time>
      </trkpt>
      <trkpt lat="43.14519" lon="-0.15039">
        <ele>448.59</ele>
        <time>2012-02-07T15:06:13Z</time>
      </trkpt>
      <trkpt lat="43.14524" lon="-0.15028">
        <ele>449.55</ele>
        <time>2012-02-07T15:06:20Z</time>
      </trkpt>
      <trkpt lat="43.14527" lon="-0.15016">
        <ele>449.07</ele>
        <time>2012-02-07T15:06:28Z</time>
      </trkpt>
      <trkpt lat="43.14529" lon="-0.15003">
        <ele>449.55</ele>
        <time>2012-02-07T15:06:37Z</time>
      </trkpt>
      <trkpt lat="43.14531" lon="-0.1499">
        <ele>449.07</ele>
        <time>2012-02-07T15:06:48Z</time>
      </trkpt>
      <trkpt lat="43.14534" lon="-0.14978">
        <ele>448.11</ele>
        <time>2012-02-07T15:06:59Z</time>
      </trkpt>
      <trkpt lat="43.14534" lon="-0.14959">
        <ele>446.67</ele>
        <time>2012-02-07T15:07:09Z</time>
      </trkpt>
      <trkpt lat="43.14535" lon="-0.14947">
        <ele>445.71</ele>
        <time>2012-02-07T15:07:23Z</time>
      </trkpt>
      <trkpt lat="43.14538" lon="-0.14935">
        <ele>443.79</ele>
        <time>2012-02-07T15:07:36Z</time>
      </trkpt>
      <trkpt lat="43.14539" lon="-0.14922">
        <ele>442.34</ele>
        <time>2012-02-07T15:07:45Z</time>
      </trkpt>
      <trkpt lat="43.14547" lon="-0.14914">
        <ele>439.94</ele>
        <time>2012-02-07T15:08:26Z</time>
      </trkpt>
      <trkpt lat="43.14552" lon="-0.14897">
        <ele>438.02</ele>
        <time>2012-02-07T15:08:47Z</time>
      </trkpt>
      <trkpt lat="43.14558" lon="-0.14875">
        <ele>437.06</ele>
        <time>2012-02-07T15:08:59Z</time>
      </trkpt>
      <trkpt lat="43.1456" lon="-0.14863">
        <ele>437.06</ele>
        <time>2012-02-07T15:09:07Z</time>
      </trkpt>
      <trkpt lat="43.14566" lon="-0.1485">
        <ele>436.1</ele>
        <time>2012-02-07T15:09:18Z</time>
      </trkpt>
      <trkpt lat="43.14573" lon="-0.14835">
        <ele>436.58</ele>
        <time>2012-02-07T15:09:28Z</time>
      </trkpt>
      <trkpt lat="43.14579" lon="-0.14823">
        <ele>436.1</ele>
        <time>2012-02-07T15:09:39Z</time>
      </trkpt>
      <trkpt lat="43.14583" lon="-0.14811">
        <ele>436.58</ele>
        <time>2012-02-07T15:09:51Z</time>
      </trkpt>
      <trkpt lat="43.1459" lon="-0.14801">
        <ele>436.58</ele>
        <time>2012-02-07T15:10:01Z</time>
      </trkpt>
      <trkpt lat="43.14598" lon="-0.14789">
        <ele>435.61</ele>
        <time>2012-02-07T15:10:12Z</time>
      </trkpt>
      <trkpt lat="43.14608" lon="-0.14789">
        <ele>436.1</ele>
        <time>2012-02-07T15:10:48Z</time>
      </trkpt>
      <trkpt lat="43.14618" lon="-0.14789">
        <ele>435.13</ele>
        <time>2012-02-07T15:10:58Z</time>
      </trkpt>
      <trkpt lat="43.14627" lon="-0.14784">
        <ele>434.65</ele>
        <time>2012-02-07T15:11:10Z</time>
      </trkpt>
      <trkpt lat="43.14632" lon="-0.14783">
        <ele>435.61</ele>
        <time>2012-02-07T15:12:00Z</time>
      </trkpt>
      <trkpt lat="43.14633" lon="-0.14791">
        <ele>432.73</ele>
        <time>2012-02-07T15:23:26Z</time>
      </trkpt>
      <trkpt lat="43.14638" lon="-0.14798">
        <ele>433.21</ele>
        <time>2012-02-07T15:23:45Z</time>
      </trkpt>
      <trkpt lat="43.14637" lon="-0.14792">
        <ele>432.73</ele>
        <time>2012-02-07T15:31:16Z</time>
      </trkpt>
      <trkpt lat="43.14621" lon="-0.1479">
        <ele>434.17</ele>
        <time>2012-02-07T15:33:29Z</time>
      </trkpt>
      <trkpt lat="43.14611" lon="-0.14785">
        <ele>434.65</ele>
        <time>2012-02-07T15:33:39Z</time>
      </trkpt>
      <trkpt lat="43.14612" lon="-0.14769">
        <ele>434.17</ele>
        <time>2012-02-07T15:33:50Z</time>
      </trkpt>
      <trkpt lat="43.14621" lon="-0.14754">
        <ele>433.69</ele>
        <time>2012-02-07T15:34:04Z</time>
      </trkpt>
      <trkpt lat="43.14628" lon="-0.14743">
        <ele>433.21</ele>
        <time>2012-02-07T15:34:16Z</time>
      </trkpt>
      <trkpt lat="43.14632" lon="-0.14727">
        <ele>432.73</ele>
        <time>2012-02-07T15:34:27Z</time>
      </trkpt>
      <trkpt lat="43.14635" lon="-0.14715">
        <ele>432.73</ele>
        <time>2012-02-07T15:34:37Z</time>
      </trkpt>
      <trkpt lat="43.14636" lon="-0.14702">
        <ele>432.25</ele>
        <time>2012-02-07T15:34:48Z</time>
      </trkpt>
      <trkpt lat="43.14637" lon="-0.14686">
        <ele>432.73</ele>
        <time>2012-02-07T15:34:59Z</time>
      </trkpt>
      <trkpt lat="43.1464" lon="-0.1467">
        <ele>431.77</ele>
        <time>2012-02-07T15:35:10Z</time>
      </trkpt>
      <trkpt lat="43.14642" lon="-0.14653">
        <ele>431.77</ele>
        <time>2012-02-07T15:35:19Z</time>
      </trkpt>
      <trkpt lat="43.14645" lon="-0.14638">
        <ele>432.25</ele>
        <time>2012-02-07T15:35:27Z</time>
      </trkpt>
      <trkpt lat="43.14648" lon="-0.14626">
        <ele>432.25</ele>
        <time>2012-02-07T15:35:37Z</time>
      </trkpt>
      <trkpt lat="43.14653" lon="-0.14614">
        <ele>433.21</ele>
        <time>2012-02-07T15:35:58Z</time>
      </trkpt>
      <trkpt lat="43.14658" lon="-0.146">
        <ele>432.73</ele>
        <time>2012-02-07T15:36:14Z</time>
      </trkpt>
      <trkpt lat="43.14659" lon="-0.14585">
        <ele>432.73</ele>
        <time>2012-02-07T15:36:23Z</time>
      </trkpt>
      <trkpt lat="43.14658" lon="-0.14569">
        <ele>431.77</ele>
        <time>2012-02-07T15:36:31Z</time>
      </trkpt>
      <trkpt lat="43.1466" lon="-0.1455">
        <ele>430.33</ele>
        <time>2012-02-07T15:36:39Z</time>
      </trkpt>
      <trkpt lat="43.14658" lon="-0.14535">
        <ele>429.37</ele>
        <time>2012-02-07T15:36:48Z</time>
      </trkpt>
      <trkpt lat="43.14658" lon="-0.14519">
        <ele>428.89</ele>
        <time>2012-02-07T15:36:56Z</time>
      </trkpt>
      <trkpt lat="43.14657" lon="-0.14505">
        <ele>428.4</ele>
        <time>2012-02-07T15:37:04Z</time>
      </trkpt>
      <trkpt lat="43.14656" lon="-0.1449">
        <ele>427.44</ele>
        <time>2012-02-07T15:37:12Z</time>
      </trkpt>
      <trkpt lat="43.14655" lon="-0.14478">
        <ele>427.44</ele>
        <time>2012-02-07T15:37:21Z</time>
      </trkpt>
      <trkpt lat="43.14656" lon="-0.14467">
        <ele>427.92</ele>
        <time>2012-02-07T15:38:18Z</time>
      </trkpt>
      <trkpt lat="43.14659" lon="-0.14467">
        <ele>427.92</ele>
        <time>2012-02-07T15:39:18Z</time>
      </trkpt>
      <trkpt lat="43.14662" lon="-0.14465">
        <ele>426</ele>
        <time>2012-02-07T15:40:59Z</time>
      </trkpt>
      <trkpt lat="43.14673" lon="-0.14458">
        <ele>424.08</ele>
        <time>2012-02-07T15:41:06Z</time>
      </trkpt>
      <trkpt lat="43.14684" lon="-0.14454">
        <ele>421.68</ele>
        <time>2012-02-07T15:41:11Z</time>
      </trkpt>
      <trkpt lat="43.14696" lon="-0.1445">
        <ele>418.31</ele>
        <time>2012-02-07T15:41:16Z</time>
      </trkpt>
      <trkpt lat="43.14707" lon="-0.14447">
        <ele>416.39</ele>
        <time>2012-02-07T15:41:21Z</time>
      </trkpt>
      <trkpt lat="43.14718" lon="-0.14448">
        <ele>414.47</ele>
        <time>2012-02-07T15:42:29Z</time>
      </trkpt>
      <trkpt lat="43.14729" lon="-0.14447">
        <ele>412.54</ele>
        <time>2012-02-07T15:42:39Z</time>
      </trkpt>
      <trkpt lat="43.1474" lon="-0.14447">
        <ele>411.1</ele>
        <time>2012-02-07T15:42:48Z</time>
      </trkpt>
      <trkpt lat="43.14754" lon="-0.14443">
        <ele>408.7</ele>
        <time>2012-02-07T15:42:57Z</time>
      </trkpt>
      <trkpt lat="43.14769" lon="-0.1444">
        <ele>406.77</ele>
        <time>2012-02-07T15:43:06Z</time>
      </trkpt>
      <trkpt lat="43.14784" lon="-0.14443">
        <ele>403.41</ele>
        <time>2012-02-07T15:43:15Z</time>
      </trkpt>
      <trkpt lat="43.14798" lon="-0.14448">
        <ele>401.97</ele>
        <time>2012-02-07T15:43:23Z</time>
      </trkpt>
      <trkpt lat="43.14812" lon="-0.14454">
        <ele>398.6</ele>
        <time>2012-02-07T15:43:30Z</time>
      </trkpt>
      <trkpt lat="43.14825" lon="-0.1446">
        <ele>397.16</ele>
        <time>2012-02-07T15:43:36Z</time>
      </trkpt>
      <trkpt lat="43.14837" lon="-0.14467">
        <ele>393.8</ele>
        <time>2012-02-07T15:43:41Z</time>
      </trkpt>
      <trkpt lat="43.1485" lon="-0.14475">
        <ele>391.87</ele>
        <time>2012-02-07T15:43:46Z</time>
      </trkpt>
      <trkpt lat="43.14856" lon="-0.14486">
        <ele>391.87</ele>
        <time>2012-02-07T15:43:51Z</time>
      </trkpt>
      <trkpt lat="43.14866" lon="-0.14507">
        <ele>390.91</ele>
        <time>2012-02-07T15:43:58Z</time>
      </trkpt>
      <trkpt lat="43.14873" lon="-0.14523">
        <ele>389.95</ele>
        <time>2012-02-07T15:44:04Z</time>
      </trkpt>
      <trkpt lat="43.14878" lon="-0.14542">
        <ele>388.51</ele>
        <time>2012-02-07T15:44:11Z</time>
      </trkpt>
      <trkpt lat="43.14879" lon="-0.14566">
        <ele>387.07</ele>
        <time>2012-02-07T15:44:21Z</time>
      </trkpt>
      <trkpt lat="43.14882" lon="-0.14593">
        <ele>384.66</ele>
        <time>2012-02-07T15:44:34Z</time>
      </trkpt>
      <trkpt lat="43.14886" lon="-0.1462">
        <ele>384.18</ele>
        <time>2012-02-07T15:44:51Z</time>
      </trkpt>
      <trkpt lat="43.14893" lon="-0.14629">
        <ele>382.74</ele>
        <time>2012-02-07T15:45:01Z</time>
      </trkpt>
      <trkpt lat="43.14902" lon="-0.14677">
        <ele>379.86</ele>
        <time>2012-02-07T15:45:40Z</time>
      </trkpt>
      <trkpt lat="43.14914" lon="-0.1469">
        <ele>377.94</ele>
        <time>2012-02-07T15:46:45Z</time>
      </trkpt>
      <trkpt lat="43.14921" lon="-0.14701">
        <ele>377.45</ele>
        <time>2012-02-07T15:46:53Z</time>
      </trkpt>
      <trkpt lat="43.14929" lon="-0.14714">
        <ele>376.01</ele>
        <time>2012-02-07T15:47:02Z</time>
      </trkpt>
      <trkpt lat="43.14939" lon="-0.14744">
        <ele>374.57</ele>
        <time>2012-02-07T15:47:12Z</time>
      </trkpt>
      <trkpt lat="43.14945" lon="-0.14755">
        <ele>374.57</ele>
        <time>2012-02-07T15:47:19Z</time>
      </trkpt>
      <trkpt lat="43.14951" lon="-0.14765">
        <ele>374.09</ele>
        <time>2012-02-07T15:47:27Z</time>
      </trkpt>
      <trkpt lat="43.14958" lon="-0.14778">
        <ele>373.13</ele>
        <time>2012-02-07T15:47:36Z</time>
      </trkpt>
      <trkpt lat="43.14962" lon="-0.14792">
        <ele>372.17</ele>
        <time>2012-02-07T15:47:45Z</time>
      </trkpt>
      <trkpt lat="43.14966" lon="-0.14802">
        <ele>371.69</ele>
        <time>2012-02-07T15:47:55Z</time>
      </trkpt>
      <trkpt lat="43.14972" lon="-0.14812">
        <ele>371.69</ele>
        <time>2012-02-07T15:48:03Z</time>
      </trkpt>
      <trkpt lat="43.14978" lon="-0.14822">
        <ele>371.69</ele>
        <time>2012-02-07T15:48:11Z</time>
      </trkpt>
      <trkpt lat="43.14984" lon="-0.14831">
        <ele>370.73</ele>
        <time>2012-02-07T15:48:20Z</time>
      </trkpt>
      <trkpt lat="43.14989" lon="-0.14842">
        <ele>370.24</ele>
        <time>2012-02-07T15:48:28Z</time>
      </trkpt>
      <trkpt lat="43.14994" lon="-0.14851">
        <ele>370.24</ele>
        <time>2012-02-07T15:48:36Z</time>
      </trkpt>
      <trkpt lat="43.15" lon="-0.14861">
        <ele>369.76</ele>
        <time>2012-02-07T15:48:47Z</time>
      </trkpt>
      <trkpt lat="43.15005" lon="-0.14871">
        <ele>368.8</ele>
        <time>2012-02-07T15:48:57Z</time>
      </trkpt>
      <trkpt lat="43.1501" lon="-0.14882">
        <ele>368.32</ele>
        <time>2012-02-07T15:49:04Z</time>
      </trkpt>
      <trkpt lat="43.15012" lon="-0.14893">
        <ele>367.84</ele>
        <time>2012-02-07T15:49:15Z</time>
      </trkpt>
      <trkpt lat="43.15016" lon="-0.14906">
        <ele>366.88</ele>
        <time>2012-02-07T15:49:24Z</time>
      </trkpt>
      <trkpt lat="43.15018" lon="-0.14918">
        <ele>366.88</ele>
        <time>2012-02-07T15:49:33Z</time>
      </trkpt>
      <trkpt lat="43.1502" lon="-0.1493">
        <ele>365.92</ele>
        <time>2012-02-07T15:49:42Z</time>
      </trkpt>
      <trkpt lat="43.15022" lon="-0.14943">
        <ele>365.44</ele>
        <time>2012-02-07T15:49:52Z</time>
      </trkpt>
      <trkpt lat="43.15025" lon="-0.14956">
        <ele>363.52</ele>
        <time>2012-02-07T15:49:59Z</time>
      </trkpt>
      <trkpt lat="43.15027" lon="-0.14969">
        <ele>362.55</ele>
        <time>2012-02-07T15:50:11Z</time>
      </trkpt>
      <trkpt lat="43.1503" lon="-0.14982">
        <ele>361.11</ele>
        <time>2012-02-07T15:50:19Z</time>
      </trkpt>
      <trkpt lat="43.15036" lon="-0.15016">
        <ele>359.67</ele>
        <time>2012-02-07T15:50:40Z</time>
      </trkpt>
      <trkpt lat="43.15036" lon="-0.15029">
        <ele>358.71</ele>
        <time>2012-02-07T15:50:49Z</time>
      </trkpt>
      <trkpt lat="43.15042" lon="-0.15055">
        <ele>358.23</ele>
        <time>2012-02-07T15:51:05Z</time>
      </trkpt>
      <trkpt lat="43.15046" lon="-0.15066">
        <ele>357.75</ele>
        <time>2012-02-07T15:51:13Z</time>
      </trkpt>
      <trkpt lat="43.1505" lon="-0.15079">
        <ele>357.75</ele>
        <time>2012-02-07T15:51:21Z</time>
      </trkpt>
      <trkpt lat="43.15054" lon="-0.15089">
        <ele>356.79</ele>
        <time>2012-02-07T15:51:29Z</time>
      </trkpt>
      <trkpt lat="43.15065" lon="-0.15117">
        <ele>355.83</ele>
        <time>2012-02-07T15:51:51Z</time>
      </trkpt>
      <trkpt lat="43.15066" lon="-0.15129">
        <ele>354.86</ele>
        <time>2012-02-07T15:51:59Z</time>
      </trkpt>
      <trkpt lat="43.15071" lon="-0.15153">
        <ele>351.5</ele>
        <time>2012-02-07T15:52:33Z</time>
      </trkpt>
      <trkpt lat="43.15076" lon="-0.15196">
        <ele>350.06</ele>
        <time>2012-02-07T15:53:02Z</time>
      </trkpt>
      <trkpt lat="43.15082" lon="-0.15206">
        <ele>349.58</ele>
        <time>2012-02-07T15:53:26Z</time>
      </trkpt>
      <trkpt lat="43.15087" lon="-0.15216">
        <ele>349.1</ele>
        <time>2012-02-07T15:53:33Z</time>
      </trkpt>
      <trkpt lat="43.15091" lon="-0.15227">
        <ele>348.62</ele>
        <time>2012-02-07T15:53:39Z</time>
      </trkpt>
      <trkpt lat="43.15089" lon="-0.15272">
        <ele>349.58</ele>
        <time>2012-02-07T15:53:51Z</time>
      </trkpt>
      <trkpt lat="43.15094" lon="-0.15288">
        <ele>349.58</ele>
        <time>2012-02-07T15:53:59Z</time>
      </trkpt>
      <trkpt lat="43.15101" lon="-0.15298">
        <ele>349.58</ele>
        <time>2012-02-07T15:54:08Z</time>
      </trkpt>
      <trkpt lat="43.15109" lon="-0.15307">
        <ele>349.58</ele>
        <time>2012-02-07T15:54:17Z</time>
      </trkpt>
      <trkpt lat="43.15115" lon="-0.15317">
        <ele>349.1</ele>
        <time>2012-02-07T15:54:26Z</time>
      </trkpt>
      <trkpt lat="43.15122" lon="-0.15327">
        <ele>348.62</ele>
        <time>2012-02-07T15:54:33Z</time>
      </trkpt>
      <trkpt lat="43.15128" lon="-0.15337">
        <ele>347.65</ele>
        <time>2012-02-07T15:54:41Z</time>
      </trkpt>
      <trkpt lat="43.15132" lon="-0.15348">
        <ele>346.69</ele>
        <time>2012-02-07T15:54:48Z</time>
      </trkpt>
      <trkpt lat="43.15139" lon="-0.15357">
        <ele>346.69</ele>
        <time>2012-02-07T15:54:56Z</time>
      </trkpt>
      <trkpt lat="43.15144" lon="-0.15369">
        <ele>345.73</ele>
        <time>2012-02-07T15:55:04Z</time>
      </trkpt>
      <trkpt lat="43.15149" lon="-0.15379">
        <ele>345.25</ele>
        <time>2012-02-07T15:55:11Z</time>
      </trkpt>
      <trkpt lat="43.15157" lon="-0.15387">
        <ele>345.25</ele>
        <time>2012-02-07T15:55:19Z</time>
      </trkpt>
      <trkpt lat="43.15165" lon="-0.15395">
        <ele>345.73</ele>
        <time>2012-02-07T15:55:28Z</time>
      </trkpt>
      <trkpt lat="43.1517" lon="-0.15406">
        <ele>345.25</ele>
        <time>2012-02-07T15:55:36Z</time>
      </trkpt>
      <trkpt lat="43.15175" lon="-0.15418">
        <ele>345.25</ele>
        <time>2012-02-07T15:55:44Z</time>
      </trkpt>
      <trkpt lat="43.15178" lon="-0.15433">
        <ele>344.29</ele>
        <time>2012-02-07T15:55:53Z</time>
      </trkpt>
      <trkpt lat="43.15183" lon="-0.15451">
        <ele>344.29</ele>
        <time>2012-02-07T15:56:03Z</time>
      </trkpt>
      <trkpt lat="43.15191" lon="-0.15463">
        <ele>344.77</ele>
        <time>2012-02-07T15:56:14Z</time>
      </trkpt>
      <trkpt lat="43.15196" lon="-0.15476">
        <ele>344.77</ele>
        <time>2012-02-07T15:56:23Z</time>
      </trkpt>
      <trkpt lat="43.15198" lon="-0.1549">
        <ele>344.77</ele>
        <time>2012-02-07T15:56:32Z</time>
      </trkpt>
      <trkpt lat="43.15197" lon="-0.15504">
        <ele>344.77</ele>
        <time>2012-02-07T15:56:43Z</time>
      </trkpt>
      <trkpt lat="43.15197" lon="-0.15519">
        <ele>345.25</ele>
        <time>2012-02-07T15:56:53Z</time>
      </trkpt>
      <trkpt lat="43.15199" lon="-0.15531">
        <ele>345.25</ele>
        <time>2012-02-07T15:57:01Z</time>
      </trkpt>
      <trkpt lat="43.15201" lon="-0.15545">
        <ele>345.25</ele>
        <time>2012-02-07T15:57:10Z</time>
      </trkpt>
      <trkpt lat="43.15203" lon="-0.15558">
        <ele>345.73</ele>
        <time>2012-02-07T15:57:17Z</time>
      </trkpt>
      <trkpt lat="43.15204" lon="-0.15572">
        <ele>345.73</ele>
        <time>2012-02-07T15:57:25Z</time>
      </trkpt>
      <trkpt lat="43.15207" lon="-0.15584">
        <ele>346.21</ele>
        <time>2012-02-07T15:57:32Z</time>
      </trkpt>
      <trkpt lat="43.1521" lon="-0.15598">
        <ele>346.69</ele>
        <time>2012-02-07T15:57:40Z</time>
      </trkpt>
      <trkpt lat="43.15214" lon="-0.15609">
        <ele>346.21</ele>
        <time>2012-02-07T15:57:47Z</time>
      </trkpt>
      <trkpt lat="43.15218" lon="-0.15622">
        <ele>347.17</ele>
        <time>2012-02-07T15:57:55Z</time>
      </trkpt>
      <trkpt lat="43.15223" lon="-0.15633">
        <ele>346.69</ele>
        <time>2012-02-07T15:58:03Z</time>
      </trkpt>
      <trkpt lat="43.15227" lon="-0.15644">
        <ele>346.69</ele>
        <time>2012-02-07T15:58:11Z</time>
      </trkpt>
      <trkpt lat="43.15231" lon="-0.15656">
        <ele>346.21</ele>
        <time>2012-02-07T15:58:20Z</time>
      </trkpt>
      <trkpt lat="43.15233" lon="-0.15668">
        <ele>346.69</ele>
        <time>2012-02-07T15:58:28Z</time>
      </trkpt>
      <trkpt lat="43.15235" lon="-0.1568">
        <ele>346.21</ele>
        <time>2012-02-07T15:58:38Z</time>
      </trkpt>
      <trkpt lat="43.15236" lon="-0.15695">
        <ele>345.25</ele>
        <time>2012-02-07T15:58:45Z</time>
      </trkpt>
      <trkpt lat="43.15239" lon="-0.15707">
        <ele>345.25</ele>
        <time>2012-02-07T15:58:52Z</time>
      </trkpt>
      <trkpt lat="43.15241" lon="-0.15719">
        <ele>343.81</ele>
        <time>2012-02-07T15:58:59Z</time>
      </trkpt>
      <trkpt lat="43.15243" lon="-0.15742">
        <ele>343.81</ele>
        <time>2012-02-07T15:59:09Z</time>
      </trkpt>
      <trkpt lat="43.15244" lon="-0.15757">
        <ele>342.85</ele>
        <time>2012-02-07T15:59:19Z</time>
      </trkpt>
      <trkpt lat="43.15243" lon="-0.15773">
        <ele>341.89</ele>
        <time>2012-02-07T15:59:27Z</time>
      </trkpt>
      <trkpt lat="43.15244" lon="-0.15789">
        <ele>341.89</ele>
        <time>2012-02-07T15:59:35Z</time>
      </trkpt>
      <trkpt lat="43.15247" lon="-0.15801">
        <ele>340.92</ele>
        <time>2012-02-07T15:59:42Z</time>
      </trkpt>
      <trkpt lat="43.15252" lon="-0.15814">
        <ele>339.96</ele>
        <time>2012-02-07T15:59:52Z</time>
      </trkpt>
      <trkpt lat="43.15255" lon="-0.15826">
        <ele>339.96</ele>
        <time>2012-02-07T15:59:58Z</time>
      </trkpt>
      <trkpt lat="43.1526" lon="-0.15839">
        <ele>339.96</ele>
        <time>2012-02-07T16:00:06Z</time>
      </trkpt>
      <trkpt lat="43.15262" lon="-0.15856">
        <ele>339</ele>
        <time>2012-02-07T16:00:15Z</time>
      </trkpt>
      <trkpt lat="43.15264" lon="-0.1587">
        <ele>338.04</ele>
        <time>2012-02-07T16:00:22Z</time>
      </trkpt>
      <trkpt lat="43.15264" lon="-0.15884">
        <ele>337.08</ele>
        <time>2012-02-07T16:00:31Z</time>
      </trkpt>
      <trkpt lat="43.15268" lon="-0.15897">
        <ele>337.56</ele>
        <time>2012-02-07T16:00:38Z</time>
      </trkpt>
      <trkpt lat="43.15271" lon="-0.15916">
        <ele>337.08</ele>
        <time>2012-02-07T16:00:52Z</time>
      </trkpt>
      <trkpt lat="43.15276" lon="-0.1593">
        <ele>337.08</ele>
        <time>2012-02-07T16:01:00Z</time>
      </trkpt>
      <trkpt lat="43.15278" lon="-0.15943">
        <ele>337.56</ele>
        <time>2012-02-07T16:01:07Z</time>
      </trkpt>
      <trkpt lat="43.1528" lon="-0.15958">
        <ele>336.6</ele>
        <time>2012-02-07T16:01:15Z</time>
      </trkpt>
      <trkpt lat="43.15279" lon="-0.15972">
        <ele>335.64</ele>
        <time>2012-02-07T16:01:24Z</time>
      </trkpt>
      <trkpt lat="43.15278" lon="-0.15984">
        <ele>335.16</ele>
        <time>2012-02-07T16:01:31Z</time>
      </trkpt>
      <trkpt lat="43.15278" lon="-0.15996">
        <ele>334.2</ele>
        <time>2012-02-07T16:01:41Z</time>
      </trkpt>
      <trkpt lat="43.15281" lon="-0.16009">
        <ele>334.68</ele>
        <time>2012-02-07T16:01:50Z</time>
      </trkpt>
      <trkpt lat="43.15283" lon="-0.16025">
        <ele>334.68</ele>
        <time>2012-02-07T16:01:58Z</time>
      </trkpt>
      <trkpt lat="43.15285" lon="-0.16041">
        <ele>334.2</ele>
        <time>2012-02-07T16:02:06Z</time>
      </trkpt>
      <trkpt lat="43.15282" lon="-0.16059">
        <ele>334.2</ele>
        <time>2012-02-07T16:02:13Z</time>
      </trkpt>
      <trkpt lat="43.15282" lon="-0.1607">
        <ele>333.71</ele>
        <time>2012-02-07T16:02:20Z</time>
      </trkpt>
      <trkpt lat="43.15281" lon="-0.16082">
        <ele>332.75</ele>
        <time>2012-02-07T16:02:31Z</time>
      </trkpt>
      <trkpt lat="43.15283" lon="-0.16106">
        <ele>329.87</ele>
        <time>2012-02-07T16:03:02Z</time>
      </trkpt>
      <trkpt lat="43.15283" lon="-0.16155">
        <ele>328.43</ele>
        <time>2012-02-07T16:03:16Z</time>
      </trkpt>
      <trkpt lat="43.15281" lon="-0.16168">
        <ele>326.99</ele>
        <time>2012-02-07T16:03:24Z</time>
      </trkpt>
      <trkpt lat="43.15278" lon="-0.16179">
        <ele>326.02</ele>
        <time>2012-02-07T16:03:31Z</time>
      </trkpt>
      <trkpt lat="43.15276" lon="-0.16192">
        <ele>324.58</ele>
        <time>2012-02-07T16:03:39Z</time>
      </trkpt>
      <trkpt lat="43.15273" lon="-0.16206">
        <ele>324.58</ele>
        <time>2012-02-07T16:03:46Z</time>
      </trkpt>
      <trkpt lat="43.15266" lon="-0.16233">
        <ele>324.1</ele>
        <time>2012-02-07T16:03:58Z</time>
      </trkpt>
      <trkpt lat="43.15266" lon="-0.16247">
        <ele>324.1</ele>
        <time>2012-02-07T16:04:07Z</time>
      </trkpt>
      <trkpt lat="43.15278" lon="-0.16268">
        <ele>322.18</ele>
        <time>2012-02-07T16:04:26Z</time>
      </trkpt>
      <trkpt lat="43.15286" lon="-0.16287">
        <ele>321.7</ele>
        <time>2012-02-07T16:04:35Z</time>
      </trkpt>
      <trkpt lat="43.15295" lon="-0.16295">
        <ele>321.7</ele>
        <time>2012-02-07T16:04:43Z</time>
      </trkpt>
      <trkpt lat="43.15303" lon="-0.16305">
        <ele>321.7</ele>
        <time>2012-02-07T16:04:51Z</time>
      </trkpt>
      <trkpt lat="43.1531" lon="-0.16315">
        <ele>322.18</ele>
        <time>2012-02-07T16:04:58Z</time>
      </trkpt>
      <trkpt lat="43.15316" lon="-0.16328">
        <ele>322.18</ele>
        <time>2012-02-07T16:05:05Z</time>
      </trkpt>
      <trkpt lat="43.15322" lon="-0.16338">
        <ele>322.66</ele>
        <time>2012-02-07T16:05:14Z</time>
      </trkpt>
      <trkpt lat="43.15327" lon="-0.16352">
        <ele>322.66</ele>
        <time>2012-02-07T16:05:23Z</time>
      </trkpt>
      <trkpt lat="43.15332" lon="-0.16365">
        <ele>322.66</ele>
        <time>2012-02-07T16:05:32Z</time>
      </trkpt>
      <trkpt lat="43.1533" lon="-0.16397">
        <ele>322.66</ele>
        <time>2012-02-07T16:05:45Z</time>
      </trkpt>
      <trkpt lat="43.15333" lon="-0.16428">
        <ele>321.7</ele>
        <time>2012-02-07T16:06:01Z</time>
      </trkpt>
      <trkpt lat="43.15334" lon="-0.16448">
        <ele>320.74</ele>
        <time>2012-02-07T16:06:14Z</time>
      </trkpt>
      <trkpt lat="43.15339" lon="-0.16466">
        <ele>320.26</ele>
        <time>2012-02-07T16:06:25Z</time>
      </trkpt>
      <trkpt lat="43.15342" lon="-0.16478">
        <ele>319.78</ele>
        <time>2012-02-07T16:06:33Z</time>
      </trkpt>
      <trkpt lat="43.15341" lon="-0.16491">
        <ele>319.78</ele>
        <time>2012-02-07T16:06:41Z</time>
      </trkpt>
      <trkpt lat="43.1534" lon="-0.16506">
        <ele>319.78</ele>
        <time>2012-02-07T16:06:48Z</time>
      </trkpt>
      <trkpt lat="43.15343" lon="-0.16518">
        <ele>319.3</ele>
        <time>2012-02-07T16:06:55Z</time>
      </trkpt>
      <trkpt lat="43.1534" lon="-0.16543">
        <ele>319.78</ele>
        <time>2012-02-07T16:07:04Z</time>
      </trkpt>
      <trkpt lat="43.15337" lon="-0.16561">
        <ele>320.74</ele>
        <time>2012-02-07T16:07:15Z</time>
      </trkpt>
      <trkpt lat="43.15334" lon="-0.16573">
        <ele>321.7</ele>
        <time>2012-02-07T16:07:25Z</time>
      </trkpt>
      <trkpt lat="43.15328" lon="-0.16591">
        <ele>322.18</ele>
        <time>2012-02-07T16:07:41Z</time>
      </trkpt>
      <trkpt lat="43.15324" lon="-0.16605">
        <ele>322.66</ele>
        <time>2012-02-07T16:07:49Z</time>
      </trkpt>
      <trkpt lat="43.15318" lon="-0.1662">
        <ele>322.66</ele>
        <time>2012-02-07T16:07:56Z</time>
      </trkpt>
      <trkpt lat="43.1531" lon="-0.16645">
        <ele>322.18</ele>
        <time>2012-02-07T16:08:08Z</time>
      </trkpt>
      <trkpt lat="43.15309" lon="-0.1666">
        <ele>321.7</ele>
        <time>2012-02-07T16:08:15Z</time>
      </trkpt>
      <trkpt lat="43.15307" lon="-0.16674">
        <ele>321.22</ele>
        <time>2012-02-07T16:08:22Z</time>
      </trkpt>
      <trkpt lat="43.15305" lon="-0.1669">
        <ele>320.26</ele>
        <time>2012-02-07T16:08:29Z</time>
      </trkpt>
      <trkpt lat="43.15303" lon="-0.16702">
        <ele>320.74</ele>
        <time>2012-02-07T16:08:36Z</time>
      </trkpt>
      <trkpt lat="43.15302" lon="-0.16714">
        <ele>320.74</ele>
        <time>2012-02-07T16:08:42Z</time>
      </trkpt>
      <trkpt lat="43.15303" lon="-0.16726">
        <ele>320.74</ele>
        <time>2012-02-07T16:08:49Z</time>
      </trkpt>
      <trkpt lat="43.15306" lon="-0.16738">
        <ele>320.26</ele>
        <time>2012-02-07T16:08:56Z</time>
      </trkpt>
      <trkpt lat="43.15306" lon="-0.16751">
        <ele>320.26</ele>
        <time>2012-02-07T16:09:02Z</time>
      </trkpt>
      <trkpt lat="43.15306" lon="-0.16763">
        <ele>319.3</ele>
        <time>2012-02-07T16:09:09Z</time>
      </trkpt>
      <trkpt lat="43.15303" lon="-0.16775">
        <ele>318.33</ele>
        <time>2012-02-07T16:09:16Z</time>
      </trkpt>
      <trkpt lat="43.153" lon="-0.16788">
        <ele>316.89</ele>
        <time>2012-02-07T16:09:23Z</time>
      </trkpt>
      <trkpt lat="43.15297" lon="-0.16801">
        <ele>316.41</ele>
        <time>2012-02-07T16:09:31Z</time>
      </trkpt>
      <trkpt lat="43.15293" lon="-0.16813">
        <ele>315.45</ele>
        <time>2012-02-07T16:09:39Z</time>
      </trkpt>
      <trkpt lat="43.15289" lon="-0.16824">
        <ele>314.49</ele>
        <time>2012-02-07T16:09:46Z</time>
      </trkpt>
      <trkpt lat="43.15285" lon="-0.16836">
        <ele>313.53</ele>
        <time>2012-02-07T16:09:53Z</time>
      </trkpt>
      <trkpt lat="43.15279" lon="-0.16849">
        <ele>312.57</ele>
        <time>2012-02-07T16:10:02Z</time>
      </trkpt>
      <trkpt lat="43.15273" lon="-0.16861">
        <ele>311.12</ele>
        <time>2012-02-07T16:10:11Z</time>
      </trkpt>
      <trkpt lat="43.15268" lon="-0.16874">
        <ele>310.16</ele>
        <time>2012-02-07T16:10:20Z</time>
      </trkpt>
      <trkpt lat="43.15261" lon="-0.16889">
        <ele>309.2</ele>
        <time>2012-02-07T16:10:29Z</time>
      </trkpt>
      <trkpt lat="43.15261" lon="-0.16906">
        <ele>309.2</ele>
        <time>2012-02-07T16:10:37Z</time>
      </trkpt>
      <trkpt lat="43.15264" lon="-0.16925">
        <ele>308.72</ele>
        <time>2012-02-07T16:10:46Z</time>
      </trkpt>
      <trkpt lat="43.15266" lon="-0.16946">
        <ele>308.72</ele>
        <time>2012-02-07T16:10:55Z</time>
      </trkpt>
      <trkpt lat="43.1527" lon="-0.1696">
        <ele>308.24</ele>
        <time>2012-02-07T16:11:03Z</time>
      </trkpt>
      <trkpt lat="43.15275" lon="-0.16972">
        <ele>306.8</ele>
        <time>2012-02-07T16:11:11Z</time>
      </trkpt>
      <trkpt lat="43.15279" lon="-0.16984">
        <ele>306.32</ele>
        <time>2012-02-07T16:11:18Z</time>
      </trkpt>
      <trkpt lat="43.15283" lon="-0.16995">
        <ele>306.32</ele>
        <time>2012-02-07T16:11:25Z</time>
      </trkpt>
      <trkpt lat="43.15286" lon="-0.17008">
        <ele>305.36</ele>
        <time>2012-02-07T16:11:32Z</time>
      </trkpt>
      <trkpt lat="43.15288" lon="-0.17022">
        <ele>304.39</ele>
        <time>2012-02-07T16:11:40Z</time>
      </trkpt>
      <trkpt lat="43.15291" lon="-0.17037">
        <ele>304.39</ele>
        <time>2012-02-07T16:11:49Z</time>
      </trkpt>
      <trkpt lat="43.15296" lon="-0.17048">
        <ele>303.91</ele>
        <time>2012-02-07T16:11:56Z</time>
      </trkpt>
      <trkpt lat="43.15302" lon="-0.17058">
        <ele>303.43</ele>
        <time>2012-02-07T16:12:03Z</time>
      </trkpt>
      <trkpt lat="43.15307" lon="-0.1707">
        <ele>303.43</ele>
        <time>2012-02-07T16:12:11Z</time>
      </trkpt>
      <trkpt lat="43.15315" lon="-0.17081">
        <ele>302.95</ele>
        <time>2012-02-07T16:12:19Z</time>
      </trkpt>
      <trkpt lat="43.15328" lon="-0.17092">
        <ele>302.95</ele>
        <time>2012-02-07T16:12:29Z</time>
      </trkpt>
      <trkpt lat="43.15335" lon="-0.17101">
        <ele>302.95</ele>
        <time>2012-02-07T16:12:39Z</time>
      </trkpt>
      <trkpt lat="43.15343" lon="-0.17111">
        <ele>302.95</ele>
        <time>2012-02-07T16:12:46Z</time>
      </trkpt>
      <trkpt lat="43.1535" lon="-0.17127">
        <ele>302.47</ele>
        <time>2012-02-07T16:12:56Z</time>
      </trkpt>
      <trkpt lat="43.15357" lon="-0.17142">
        <ele>302.47</ele>
        <time>2012-02-07T16:13:06Z</time>
      </trkpt>
      <trkpt lat="43.15361" lon="-0.17155">
        <ele>302.47</ele>
        <time>2012-02-07T16:13:14Z</time>
      </trkpt>
      <trkpt lat="43.15365" lon="-0.17169">
        <ele>302.47</ele>
        <time>2012-02-07T16:13:25Z</time>
      </trkpt>
      <trkpt lat="43.15365" lon="-0.17183">
        <ele>301.99</ele>
        <time>2012-02-07T16:15:09Z</time>
      </trkpt>
      <trkpt lat="43.15364" lon="-0.17199">
        <ele>301.99</ele>
        <time>2012-02-07T16:15:16Z</time>
      </trkpt>
      <trkpt lat="43.15365" lon="-0.17213">
        <ele>301.99</ele>
        <time>2012-02-07T16:15:23Z</time>
      </trkpt>
      <trkpt lat="43.15365" lon="-0.17226">
        <ele>302.47</ele>
        <time>2012-02-07T16:15:30Z</time>
      </trkpt>
      <trkpt lat="43.15363" lon="-0.1724">
        <ele>302.47</ele>
        <time>2012-02-07T16:15:37Z</time>
      </trkpt>
      <trkpt lat="43.15365" lon="-0.17253">
        <ele>301.99</ele>
        <time>2012-02-07T16:15:44Z</time>
      </trkpt>
      <trkpt lat="43.15366" lon="-0.17266">
        <ele>302.47</ele>
        <time>2012-02-07T16:15:51Z</time>
      </trkpt>
      <trkpt lat="43.15368" lon="-0.1728">
        <ele>302.47</ele>
        <time>2012-02-07T16:15:59Z</time>
      </trkpt>
      <trkpt lat="43.15372" lon="-0.17294">
        <ele>303.91</ele>
        <time>2012-02-07T16:16:07Z</time>
      </trkpt>
      <trkpt lat="43.15376" lon="-0.17307">
        <ele>304.39</ele>
        <time>2012-02-07T16:16:15Z</time>
      </trkpt>
      <trkpt lat="43.1538" lon="-0.1732">
        <ele>303.91</ele>
        <time>2012-02-07T16:16:22Z</time>
      </trkpt>
      <trkpt lat="43.15382" lon="-0.17333">
        <ele>303.91</ele>
        <time>2012-02-07T16:16:29Z</time>
      </trkpt>
      <trkpt lat="43.15387" lon="-0.17346">
        <ele>303.43</ele>
        <time>2012-02-07T16:16:37Z</time>
      </trkpt>
      <trkpt lat="43.15391" lon="-0.1736">
        <ele>302.95</ele>
        <time>2012-02-07T16:16:45Z</time>
      </trkpt>
      <trkpt lat="43.15392" lon="-0.17374">
        <ele>303.43</ele>
        <time>2012-02-07T16:16:53Z</time>
      </trkpt>
      <trkpt lat="43.15392" lon="-0.1739">
        <ele>302.47</ele>
        <time>2012-02-07T16:17:01Z</time>
      </trkpt>
      <trkpt lat="43.15391" lon="-0.17405">
        <ele>302.95</ele>
        <time>2012-02-07T16:17:09Z</time>
      </trkpt>
      <trkpt lat="43.15391" lon="-0.17419">
        <ele>302.47</ele>
        <time>2012-02-07T16:17:17Z</time>
      </trkpt>
      <trkpt lat="43.15392" lon="-0.17435">
        <ele>302.47</ele>
        <time>2012-02-07T16:17:25Z</time>
      </trkpt>
      <trkpt lat="43.15395" lon="-0.17449">
        <ele>301.99</ele>
        <time>2012-02-07T16:17:32Z</time>
      </trkpt>
      <trkpt lat="43.154" lon="-0.17462">
        <ele>302.47</ele>
        <time>2012-02-07T16:17:39Z</time>
      </trkpt>
      <trkpt lat="43.15405" lon="-0.17472">
        <ele>302.47</ele>
        <time>2012-02-07T16:17:47Z</time>
      </trkpt>
      <trkpt lat="43.1541" lon="-0.17486">
        <ele>301.99</ele>
        <time>2012-02-07T16:17:55Z</time>
      </trkpt>
      <trkpt lat="43.15414" lon="-0.17499">
        <ele>301.99</ele>
        <time>2012-02-07T16:18:03Z</time>
      </trkpt>
      <trkpt lat="43.15418" lon="-0.17512">
        <ele>301.99</ele>
        <time>2012-02-07T16:18:11Z</time>
      </trkpt>
      <trkpt lat="43.15422" lon="-0.17527">
        <ele>301.51</ele>
        <time>2012-02-07T16:18:20Z</time>
      </trkpt>
      <trkpt lat="43.15428" lon="-0.17543">
        <ele>302.47</ele>
        <time>2012-02-07T16:18:29Z</time>
      </trkpt>
      <trkpt lat="43.15432" lon="-0.17558">
        <ele>301.99</ele>
        <time>2012-02-07T16:18:37Z</time>
      </trkpt>
      <trkpt lat="43.15436" lon="-0.17574">
        <ele>301.99</ele>
        <time>2012-02-07T16:18:45Z</time>
      </trkpt>
      <trkpt lat="43.15436" lon="-0.17589">
        <ele>301.03</ele>
        <time>2012-02-07T16:18:54Z</time>
      </trkpt>
      <trkpt lat="43.15437" lon="-0.17607">
        <ele>301.03</ele>
        <time>2012-02-07T16:19:03Z</time>
      </trkpt>
      <trkpt lat="43.15435" lon="-0.17621">
        <ele>301.51</ele>
        <time>2012-02-07T16:19:10Z</time>
      </trkpt>
      <trkpt lat="43.15435" lon="-0.17635">
        <ele>301.03</ele>
        <time>2012-02-07T16:19:17Z</time>
      </trkpt>
      <trkpt lat="43.15436" lon="-0.17649">
        <ele>301.03</ele>
        <time>2012-02-07T16:19:25Z</time>
      </trkpt>
      <trkpt lat="43.15435" lon="-0.17663">
        <ele>301.03</ele>
        <time>2012-02-07T16:19:32Z</time>
      </trkpt>
      <trkpt lat="43.15435" lon="-0.17679">
        <ele>301.51</ele>
        <time>2012-02-07T16:19:40Z</time>
      </trkpt>
      <trkpt lat="43.15435" lon="-0.17693">
        <ele>301.03</ele>
        <time>2012-02-07T16:19:47Z</time>
      </trkpt>
      <trkpt lat="43.15435" lon="-0.17707">
        <ele>301.03</ele>
        <time>2012-02-07T16:19:55Z</time>
      </trkpt>
      <trkpt lat="43.15437" lon="-0.17721">
        <ele>301.03</ele>
        <time>2012-02-07T16:20:03Z</time>
      </trkpt>
      <trkpt lat="43.15441" lon="-0.17736">
        <ele>300.07</ele>
        <time>2012-02-07T16:20:11Z</time>
      </trkpt>
      <trkpt lat="43.15443" lon="-0.1775">
        <ele>300.55</ele>
        <time>2012-02-07T16:20:18Z</time>
      </trkpt>
      <trkpt lat="43.15445" lon="-0.17762">
        <ele>300.55</ele>
        <time>2012-02-07T16:20:25Z</time>
      </trkpt>
      <trkpt lat="43.15447" lon="-0.17776">
        <ele>301.03</ele>
        <time>2012-02-07T16:20:33Z</time>
      </trkpt>
      <trkpt lat="43.15447" lon="-0.1779">
        <ele>300.55</ele>
        <time>2012-02-07T16:20:40Z</time>
      </trkpt>
      <trkpt lat="43.15448" lon="-0.17805">
        <ele>300.07</ele>
        <time>2012-02-07T16:20:48Z</time>
      </trkpt>
      <trkpt lat="43.1545" lon="-0.17819">
        <ele>300.55</ele>
        <time>2012-02-07T16:20:55Z</time>
      </trkpt>
      <trkpt lat="43.15453" lon="-0.17833">
        <ele>300.07</ele>
        <time>2012-02-07T16:21:02Z</time>
      </trkpt>
      <trkpt lat="43.15453" lon="-0.17848">
        <ele>300.55</ele>
        <time>2012-02-07T16:21:09Z</time>
      </trkpt>
      <trkpt lat="43.15455" lon="-0.17861">
        <ele>301.03</ele>
        <time>2012-02-07T16:21:17Z</time>
      </trkpt>
      <trkpt lat="43.15463" lon="-0.17871">
        <ele>301.51</ele>
        <time>2012-02-07T16:21:26Z</time>
      </trkpt>
      <trkpt lat="43.15472" lon="-0.17881">
        <ele>301.99</ele>
        <time>2012-02-07T16:21:34Z</time>
      </trkpt>
      <trkpt lat="43.15483" lon="-0.1789">
        <ele>302.47</ele>
        <time>2012-02-07T16:21:42Z</time>
      </trkpt>
      <trkpt lat="43.15492" lon="-0.17898">
        <ele>302.95</ele>
        <time>2012-02-07T16:21:50Z</time>
      </trkpt>
      <trkpt lat="43.155" lon="-0.17907">
        <ele>302.95</ele>
        <time>2012-02-07T16:21:58Z</time>
      </trkpt>
      <trkpt lat="43.1551" lon="-0.17919">
        <ele>303.43</ele>
        <time>2012-02-07T16:22:07Z</time>
      </trkpt>
      <trkpt lat="43.15519" lon="-0.17927">
        <ele>302.95</ele>
        <time>2012-02-07T16:22:16Z</time>
      </trkpt>
      <trkpt lat="43.15528" lon="-0.17937">
        <ele>303.91</ele>
        <time>2012-02-07T16:22:25Z</time>
      </trkpt>
      <trkpt lat="43.15532" lon="-0.17938">
        <ele>305.84</ele>
        <time>2012-02-07T16:26:36Z</time>
      </trkpt>
      <trkpt lat="43.15542" lon="-0.1794">
        <ele>305.84</ele>
        <time>2012-02-07T16:26:52Z</time>
      </trkpt>
      <trkpt lat="43.15551" lon="-0.1794">
        <ele>306.32</ele>
        <time>2012-02-07T16:27:05Z</time>
      </trkpt>
      <trkpt lat="43.15565" lon="-0.17944">
        <ele>306.8</ele>
        <time>2012-02-07T16:27:21Z</time>
      </trkpt>
      <trkpt lat="43.15575" lon="-0.17948">
        <ele>307.28</ele>
        <time>2012-02-07T16:27:28Z</time>
      </trkpt>
      <trkpt lat="43.15586" lon="-0.17955">
        <ele>307.76</ele>
        <time>2012-02-07T16:27:36Z</time>
      </trkpt>
      <trkpt lat="43.15596" lon="-0.1796">
        <ele>308.24</ele>
        <time>2012-02-07T16:27:43Z</time>
      </trkpt>
      <trkpt lat="43.15608" lon="-0.17966">
        <ele>309.2</ele>
        <time>2012-02-07T16:27:51Z</time>
      </trkpt>
      <trkpt lat="43.15617" lon="-0.17971">
        <ele>309.68</ele>
        <time>2012-02-07T16:28:00Z</time>
      </trkpt>
      <trkpt lat="43.15624" lon="-0.17978">
        <ele>310.16</ele>
        <time>2012-02-07T16:28:06Z</time>
      </trkpt>
      <trkpt lat="43.15633" lon="-0.17983">
        <ele>309.68</ele>
        <time>2012-02-07T16:28:18Z</time>
      </trkpt>
      <trkpt lat="43.15642" lon="-0.17983">
        <ele>310.16</ele>
        <time>2012-02-07T16:28:27Z</time>
      </trkpt>
      <trkpt lat="43.15655" lon="-0.17985">
        <ele>309.68</ele>
        <time>2012-02-07T16:28:36Z</time>
      </trkpt>
      <trkpt lat="43.15669" lon="-0.17982">
        <ele>308.72</ele>
        <time>2012-02-07T16:28:46Z</time>
      </trkpt>
      <trkpt lat="43.15682" lon="-0.17974">
        <ele>309.2</ele>
        <time>2012-02-07T16:28:54Z</time>
      </trkpt>
      <trkpt lat="43.15697" lon="-0.17966">
        <ele>309.2</ele>
        <time>2012-02-07T16:29:03Z</time>
      </trkpt>
      <trkpt lat="43.15706" lon="-0.17965">
        <ele>308.72</ele>
        <time>2012-02-07T16:29:09Z</time>
      </trkpt>
      <trkpt lat="43.15714" lon="-0.17963">
        <ele>308.24</ele>
        <time>2012-02-07T16:29:20Z</time>
      </trkpt>
      <trkpt lat="43.15723" lon="-0.17969">
        <ele>308.24</ele>
        <time>2012-02-07T16:29:28Z</time>
      </trkpt>
      <trkpt lat="43.15727" lon="-0.17981">
        <ele>307.28</ele>
        <time>2012-02-07T16:29:37Z</time>
      </trkpt>
      <trkpt lat="43.15731" lon="-0.17994">
        <ele>307.76</ele>
        <time>2012-02-07T16:29:44Z</time>
      </trkpt>
      <trkpt lat="43.15733" lon="-0.18011">
        <ele>307.28</ele>
        <time>2012-02-07T16:29:51Z</time>
      </trkpt>
      <trkpt lat="43.15734" lon="-0.18024">
        <ele>307.76</ele>
        <time>2012-02-07T16:29:58Z</time>
      </trkpt>
      <trkpt lat="43.15735" lon="-0.18037">
        <ele>308.24</ele>
        <time>2012-02-07T16:30:07Z</time>
      </trkpt>
      <trkpt lat="43.15736" lon="-0.1805">
        <ele>307.28</ele>
        <time>2012-02-07T16:30:15Z</time>
      </trkpt>
      <trkpt lat="43.1574" lon="-0.18066">
        <ele>307.28</ele>
        <time>2012-02-07T16:30:25Z</time>
      </trkpt>
      <trkpt lat="43.15745" lon="-0.18082">
        <ele>306.8</ele>
        <time>2012-02-07T16:30:34Z</time>
      </trkpt>
      <trkpt lat="43.15751" lon="-0.18095">
        <ele>307.28</ele>
        <time>2012-02-07T16:30:44Z</time>
      </trkpt>
      <trkpt lat="43.15756" lon="-0.18111">
        <ele>307.28</ele>
        <time>2012-02-07T16:30:54Z</time>
      </trkpt>
      <trkpt lat="43.1576" lon="-0.18128">
        <ele>307.76</ele>
        <time>2012-02-07T16:31:03Z</time>
      </trkpt>
      <trkpt lat="43.15764" lon="-0.18146">
        <ele>307.28</ele>
        <time>2012-02-07T16:31:12Z</time>
      </trkpt>
      <trkpt lat="43.1577" lon="-0.18161">
        <ele>306.8</ele>
        <time>2012-02-07T16:31:21Z</time>
      </trkpt>
      <trkpt lat="43.15775" lon="-0.18173">
        <ele>306.32</ele>
        <time>2012-02-07T16:31:31Z</time>
      </trkpt>
      <trkpt lat="43.15779" lon="-0.18184">
        <ele>305.84</ele>
        <time>2012-02-07T16:31:39Z</time>
      </trkpt>
      <trkpt lat="43.15784" lon="-0.18196">
        <ele>305.36</ele>
        <time>2012-02-07T16:31:46Z</time>
      </trkpt>
      <trkpt lat="43.15791" lon="-0.18207">
        <ele>304.88</ele>
        <time>2012-02-07T16:31:53Z</time>
      </trkpt>
      <trkpt lat="43.15797" lon="-0.18218">
        <ele>304.39</ele>
        <time>2012-02-07T16:32:01Z</time>
      </trkpt>
      <trkpt lat="43.15805" lon="-0.18226">
        <ele>303.91</ele>
        <time>2012-02-07T16:32:10Z</time>
      </trkpt>
      <trkpt lat="43.15823" lon="-0.18246">
        <ele>302.47</ele>
        <time>2012-02-07T16:32:30Z</time>
      </trkpt>
      <trkpt lat="43.15832" lon="-0.18259">
        <ele>302.47</ele>
        <time>2012-02-07T16:32:37Z</time>
      </trkpt>
      <trkpt lat="43.15842" lon="-0.18272">
        <ele>302.95</ele>
        <time>2012-02-07T16:32:45Z</time>
      </trkpt>
      <trkpt lat="43.15852" lon="-0.18291">
        <ele>303.91</ele>
        <time>2012-02-07T16:32:55Z</time>
      </trkpt>
      <trkpt lat="43.15858" lon="-0.18303">
        <ele>304.39</ele>
        <time>2012-02-07T16:33:04Z</time>
      </trkpt>
      <trkpt lat="43.15863" lon="-0.18315">
        <ele>304.39</ele>
        <time>2012-02-07T16:33:12Z</time>
      </trkpt>
      <trkpt lat="43.15871" lon="-0.18322">
        <ele>304.88</ele>
        <time>2012-02-07T16:33:22Z</time>
      </trkpt>
      <trkpt lat="43.15877" lon="-0.18332">
        <ele>305.36</ele>
        <time>2012-02-07T16:33:30Z</time>
      </trkpt>
      <trkpt lat="43.15887" lon="-0.18348">
        <ele>305.36</ele>
        <time>2012-02-07T16:33:38Z</time>
      </trkpt>
      <trkpt lat="43.15892" lon="-0.18359">
        <ele>306.32</ele>
        <time>2012-02-07T16:33:46Z</time>
      </trkpt>
      <trkpt lat="43.15897" lon="-0.1837">
        <ele>306.32</ele>
        <time>2012-02-07T16:33:53Z</time>
      </trkpt>
      <trkpt lat="43.15903" lon="-0.18381">
        <ele>307.28</ele>
        <time>2012-02-07T16:34:01Z</time>
      </trkpt>
      <trkpt lat="43.1591" lon="-0.18391">
        <ele>307.76</ele>
        <time>2012-02-07T16:34:08Z</time>
      </trkpt>
      <trkpt lat="43.15917" lon="-0.18402">
        <ele>307.76</ele>
        <time>2012-02-07T16:34:16Z</time>
      </trkpt>
      <trkpt lat="43.15925" lon="-0.18413">
        <ele>308.72</ele>
        <time>2012-02-07T16:34:24Z</time>
      </trkpt>
      <trkpt lat="43.15933" lon="-0.1842">
        <ele>308.72</ele>
        <time>2012-02-07T16:34:32Z</time>
      </trkpt>
      <trkpt lat="43.15942" lon="-0.18424">
        <ele>308.72</ele>
        <time>2012-02-07T16:34:42Z</time>
      </trkpt>
      <trkpt lat="43.15953" lon="-0.18436">
        <ele>309.2</ele>
        <time>2012-02-07T16:34:51Z</time>
      </trkpt>
      <trkpt lat="43.15958" lon="-0.18445">
        <ele>309.2</ele>
        <time>2012-02-07T16:35:00Z</time>
      </trkpt>
      <trkpt lat="43.15962" lon="-0.18459">
        <ele>309.2</ele>
        <time>2012-02-07T16:35:10Z</time>
      </trkpt>
      <trkpt lat="43.15961" lon="-0.18461">
        <ele>308.72</ele>
        <time>2012-02-07T16:36:47Z</time>
      </trkpt>
    </trkseg>
  </trk>
</gpx>